<?xml version="1.0" encoding="UTF-8" standalone="no" ?>
<gpx xmlns="http://www.topografix.com/GPX/1/1" xmlns:xsi="http://www.w3.org/2001/XMLSchema-instance" xsi:schemaLocation="http://www.topografix.com/GPX/1/1 http://www.topografix.com/GPX/1/1/gpx.xsd" version="1.1" creator="VisuGPX - https://www.visugpx.com">
  <metadata>
    <name>Etape 3: Saint-Florent-sur-Cher&gt; Selles-sur-Cher</name>
    <desc><![CDATA[Etape 3: Saint-Florent-sur-Cher> Selles-sur-Cher
Vendredi 15 juin]]></desc>
  </metadata>
  <trk>
    <name><![CDATA[20180610202720-Fjr1U]]></name>
    <trkseg>
      <trkpt lat="47.05456" lon="2.22892">
        <ele>126</ele>
        <time>2018-04-17T13:59:50Z</time>
      </trkpt>
      <trkpt lat="47.05459" lon="2.22888">
        <ele>126</ele>
        <time>2018-04-17T13:59:53Z</time>
      </trkpt>
      <trkpt lat="47.05463" lon="2.22882">
        <ele>126</ele>
        <time>2018-04-17T13:59:56Z</time>
      </trkpt>
      <trkpt lat="47.0547" lon="2.22867">
        <ele>126</ele>
        <time>2018-04-17T14:00:01Z</time>
      </trkpt>
      <trkpt lat="47.05475" lon="2.22856">
        <ele>126</ele>
        <time>2018-04-17T14:00:07Z</time>
      </trkpt>
      <trkpt lat="47.05475" lon="2.22855">
        <ele>126</ele>
        <time>2018-04-17T14:00:15Z</time>
      </trkpt>
      <trkpt lat="47.05476" lon="2.22849">
        <ele>126</ele>
        <time>2018-04-17T14:00:21Z</time>
      </trkpt>
      <trkpt lat="47.0548" lon="2.22837">
        <ele>126</ele>
        <time>2018-04-17T14:00:27Z</time>
      </trkpt>
      <trkpt lat="47.05482" lon="2.22829">
        <ele>126</ele>
        <time>2018-04-17T14:00:33Z</time>
      </trkpt>
      <trkpt lat="47.05482" lon="2.22829">
        <ele>126</ele>
        <time>2018-04-17T14:00:42Z</time>
      </trkpt>
      <trkpt lat="47.05482" lon="2.22829">
        <ele>126</ele>
        <time>2018-04-17T14:00:56Z</time>
      </trkpt>
      <trkpt lat="47.05482" lon="2.22829">
        <ele>126</ele>
        <time>2018-04-17T14:01:11Z</time>
      </trkpt>
      <trkpt lat="47.05482" lon="2.22829">
        <ele>126</ele>
        <time>2018-04-17T14:01:19Z</time>
      </trkpt>
      <trkpt lat="47.05482" lon="2.22829">
        <ele>126</ele>
        <time>2018-04-17T14:01:28Z</time>
      </trkpt>
      <trkpt lat="47.05482" lon="2.22829">
        <ele>126</ele>
        <time>2018-04-17T14:01:47Z</time>
      </trkpt>
      <trkpt lat="47.05482" lon="2.2283">
        <ele>126</ele>
        <time>2018-04-17T14:02:07Z</time>
      </trkpt>
      <trkpt lat="47.05482" lon="2.2283">
        <ele>126</ele>
        <time>2018-04-17T14:02:30Z</time>
      </trkpt>
      <trkpt lat="47.05482" lon="2.2283">
        <ele>126</ele>
        <time>2018-04-17T14:02:47Z</time>
      </trkpt>
      <trkpt lat="47.05482" lon="2.2283">
        <ele>126</ele>
        <time>2018-04-17T14:02:57Z</time>
      </trkpt>
      <trkpt lat="47.05482" lon="2.2283">
        <ele>126</ele>
        <time>2018-04-17T14:03:11Z</time>
      </trkpt>
      <trkpt lat="47.05482" lon="2.22829">
        <ele>126</ele>
        <time>2018-04-17T14:03:21Z</time>
      </trkpt>
      <trkpt lat="47.05484" lon="2.22827">
        <ele>126</ele>
        <time>2018-04-17T14:03:23Z</time>
      </trkpt>
      <trkpt lat="47.05489" lon="2.22813">
        <ele>126</ele>
        <time>2018-04-17T14:03:27Z</time>
      </trkpt>
      <trkpt lat="47.0549" lon="2.22808">
        <ele>126</ele>
        <time>2018-04-17T14:03:28Z</time>
      </trkpt>
      <trkpt lat="47.05498" lon="2.22775">
        <ele>126</ele>
        <time>2018-04-17T14:03:36Z</time>
      </trkpt>
      <trkpt lat="47.055" lon="2.22751">
        <ele>126</ele>
        <time>2018-04-17T14:03:42Z</time>
      </trkpt>
      <trkpt lat="47.055" lon="2.22747">
        <ele>126</ele>
        <time>2018-04-17T14:03:43Z</time>
      </trkpt>
      <trkpt lat="47.05498" lon="2.22708">
        <ele>126</ele>
        <time>2018-04-17T14:03:52Z</time>
      </trkpt>
      <trkpt lat="47.05497" lon="2.22699">
        <ele>127</ele>
        <time>2018-04-17T14:03:54Z</time>
      </trkpt>
      <trkpt lat="47.05496" lon="2.22676">
        <ele>127</ele>
        <time>2018-04-17T14:03:59Z</time>
      </trkpt>
      <trkpt lat="47.05494" lon="2.2264">
        <ele>127</ele>
        <time>2018-04-17T14:04:07Z</time>
      </trkpt>
      <trkpt lat="47.05492" lon="2.22612">
        <ele>128</ele>
        <time>2018-04-17T14:04:13Z</time>
      </trkpt>
      <trkpt lat="47.05489" lon="2.22587">
        <ele>128</ele>
        <time>2018-04-17T14:04:18Z</time>
      </trkpt>
      <trkpt lat="47.05486" lon="2.22552">
        <ele>128</ele>
        <time>2018-04-17T14:04:25Z</time>
      </trkpt>
      <trkpt lat="47.05488" lon="2.22512">
        <ele>129</ele>
        <time>2018-04-17T14:04:33Z</time>
      </trkpt>
      <trkpt lat="47.0549" lon="2.22489">
        <ele>129</ele>
        <time>2018-04-17T14:04:38Z</time>
      </trkpt>
      <trkpt lat="47.05492" lon="2.2248">
        <ele>129</ele>
        <time>2018-04-17T14:04:40Z</time>
      </trkpt>
      <trkpt lat="47.05496" lon="2.22453">
        <ele>129</ele>
        <time>2018-04-17T14:04:46Z</time>
      </trkpt>
      <trkpt lat="47.05497" lon="2.22401">
        <ele>130</ele>
        <time>2018-04-17T14:04:56Z</time>
      </trkpt>
      <trkpt lat="47.05497" lon="2.22393">
        <ele>130</ele>
        <time>2018-04-17T14:04:59Z</time>
      </trkpt>
      <trkpt lat="47.05498" lon="2.22391">
        <ele>130</ele>
        <time>2018-04-17T14:05:00Z</time>
      </trkpt>
      <trkpt lat="47.05497" lon="2.2238">
        <ele>131</ele>
        <time>2018-04-17T14:05:06Z</time>
      </trkpt>
      <trkpt lat="47.05496" lon="2.2236">
        <ele>131</ele>
        <time>2018-04-17T14:05:11Z</time>
      </trkpt>
      <trkpt lat="47.05493" lon="2.22318">
        <ele>133</ele>
        <time>2018-04-17T14:05:19Z</time>
      </trkpt>
      <trkpt lat="47.05494" lon="2.22285">
        <ele>133</ele>
        <time>2018-04-17T14:05:26Z</time>
      </trkpt>
      <trkpt lat="47.05496" lon="2.22243">
        <ele>135</ele>
        <time>2018-04-17T14:05:35Z</time>
      </trkpt>
      <trkpt lat="47.05495" lon="2.22238">
        <ele>135</ele>
        <time>2018-04-17T14:05:36Z</time>
      </trkpt>
      <trkpt lat="47.0549" lon="2.22213">
        <ele>136</ele>
        <time>2018-04-17T14:05:42Z</time>
      </trkpt>
      <trkpt lat="47.05481" lon="2.2219">
        <ele>136</ele>
        <time>2018-04-17T14:05:48Z</time>
      </trkpt>
      <trkpt lat="47.05478" lon="2.22186">
        <ele>136</ele>
        <time>2018-04-17T14:05:49Z</time>
      </trkpt>
      <trkpt lat="47.05465" lon="2.22173">
        <ele>136</ele>
        <time>2018-04-17T14:05:54Z</time>
      </trkpt>
      <trkpt lat="47.05447" lon="2.22163">
        <ele>138</ele>
        <time>2018-04-17T14:06:00Z</time>
      </trkpt>
      <trkpt lat="47.05441" lon="2.22159">
        <ele>138</ele>
        <time>2018-04-17T14:06:02Z</time>
      </trkpt>
      <trkpt lat="47.05436" lon="2.22154">
        <ele>138</ele>
        <time>2018-04-17T14:06:05Z</time>
      </trkpt>
      <trkpt lat="47.05424" lon="2.2215">
        <ele>138</ele>
        <time>2018-04-17T14:06:11Z</time>
      </trkpt>
      <trkpt lat="47.05412" lon="2.22137">
        <ele>138</ele>
        <time>2018-04-17T14:06:16Z</time>
      </trkpt>
      <trkpt lat="47.05409" lon="2.22128">
        <ele>137</ele>
        <time>2018-04-17T14:06:20Z</time>
      </trkpt>
      <trkpt lat="47.05408" lon="2.22126">
        <ele>137</ele>
        <time>2018-04-17T14:06:21Z</time>
      </trkpt>
      <trkpt lat="47.05406" lon="2.22124">
        <ele>137</ele>
        <time>2018-04-17T14:06:25Z</time>
      </trkpt>
      <trkpt lat="47.05406" lon="2.22122">
        <ele>137</ele>
        <time>2018-04-17T14:06:26Z</time>
      </trkpt>
      <trkpt lat="47.05406" lon="2.22122">
        <ele>137</ele>
        <time>2018-04-17T14:06:31Z</time>
      </trkpt>
      <trkpt lat="47.05406" lon="2.22122">
        <ele>137</ele>
        <time>2018-04-17T14:06:44Z</time>
      </trkpt>
      <trkpt lat="47.05406" lon="2.22122">
        <ele>137</ele>
        <time>2018-04-17T14:06:54Z</time>
      </trkpt>
      <trkpt lat="47.05406" lon="2.22123">
        <ele>137</ele>
        <time>2018-04-17T14:07:10Z</time>
      </trkpt>
      <trkpt lat="47.05406" lon="2.22123">
        <ele>137</ele>
        <time>2018-04-17T14:07:14Z</time>
      </trkpt>
      <trkpt lat="47.05407" lon="2.22125">
        <ele>137</ele>
        <time>2018-04-17T14:07:15Z</time>
      </trkpt>
      <trkpt lat="47.05415" lon="2.22142">
        <ele>138</ele>
        <time>2018-04-17T14:07:20Z</time>
      </trkpt>
      <trkpt lat="47.05419" lon="2.22148">
        <ele>139</ele>
        <time>2018-04-17T14:07:23Z</time>
      </trkpt>
      <trkpt lat="47.05421" lon="2.2215">
        <ele>139</ele>
        <time>2018-04-17T14:07:24Z</time>
      </trkpt>
      <trkpt lat="47.05431" lon="2.22153">
        <ele>138</ele>
        <time>2018-04-17T14:07:28Z</time>
      </trkpt>
      <trkpt lat="47.05431" lon="2.2215">
        <ele>138</ele>
        <time>2018-04-17T14:07:30Z</time>
      </trkpt>
      <trkpt lat="47.05431" lon="2.22147">
        <ele>138</ele>
        <time>2018-04-17T14:07:32Z</time>
      </trkpt>
      <trkpt lat="47.05427" lon="2.22141">
        <ele>138</ele>
        <time>2018-04-17T14:07:37Z</time>
      </trkpt>
      <trkpt lat="47.05417" lon="2.22129">
        <ele>138</ele>
        <time>2018-04-17T14:07:42Z</time>
      </trkpt>
      <trkpt lat="47.05408" lon="2.22107">
        <ele>137</ele>
        <time>2018-04-17T14:07:47Z</time>
      </trkpt>
      <trkpt lat="47.054" lon="2.22084">
        <ele>138</ele>
        <time>2018-04-17T14:07:52Z</time>
      </trkpt>
      <trkpt lat="47.05399" lon="2.22059">
        <ele>137</ele>
        <time>2018-04-17T14:07:57Z</time>
      </trkpt>
      <trkpt lat="47.05404" lon="2.2203">
        <ele>137</ele>
        <time>2018-04-17T14:08:03Z</time>
      </trkpt>
      <trkpt lat="47.0541" lon="2.21996">
        <ele>137</ele>
        <time>2018-04-17T14:08:10Z</time>
      </trkpt>
      <trkpt lat="47.05417" lon="2.21961">
        <ele>137</ele>
        <time>2018-04-17T14:08:17Z</time>
      </trkpt>
      <trkpt lat="47.05423" lon="2.21927">
        <ele>137</ele>
        <time>2018-04-17T14:08:24Z</time>
      </trkpt>
      <trkpt lat="47.05431" lon="2.21883">
        <ele>137</ele>
        <time>2018-04-17T14:08:32Z</time>
      </trkpt>
      <trkpt lat="47.05438" lon="2.21845">
        <ele>136</ele>
        <time>2018-04-17T14:08:40Z</time>
      </trkpt>
      <trkpt lat="47.05448" lon="2.21798">
        <ele>135</ele>
        <time>2018-04-17T14:08:50Z</time>
      </trkpt>
      <trkpt lat="47.05458" lon="2.21748">
        <ele>135</ele>
        <time>2018-04-17T14:09:00Z</time>
      </trkpt>
      <trkpt lat="47.05466" lon="2.21706">
        <ele>135</ele>
        <time>2018-04-17T14:09:08Z</time>
      </trkpt>
      <trkpt lat="47.05467" lon="2.21701">
        <ele>135</ele>
        <time>2018-04-17T14:09:09Z</time>
      </trkpt>
      <trkpt lat="47.05475" lon="2.2166">
        <ele>136</ele>
        <time>2018-04-17T14:09:17Z</time>
      </trkpt>
      <trkpt lat="47.05483" lon="2.21619">
        <ele>136</ele>
        <time>2018-04-17T14:09:25Z</time>
      </trkpt>
      <trkpt lat="47.0549" lon="2.21584">
        <ele>138</ele>
        <time>2018-04-17T14:09:32Z</time>
      </trkpt>
      <trkpt lat="47.05501" lon="2.21529">
        <ele>137</ele>
        <time>2018-04-17T14:09:43Z</time>
      </trkpt>
      <trkpt lat="47.05512" lon="2.21484">
        <ele>137</ele>
        <time>2018-04-17T14:09:52Z</time>
      </trkpt>
      <trkpt lat="47.05521" lon="2.21439">
        <ele>136</ele>
        <time>2018-04-17T14:10:01Z</time>
      </trkpt>
      <trkpt lat="47.05531" lon="2.21386">
        <ele>135</ele>
        <time>2018-04-17T14:10:11Z</time>
      </trkpt>
      <trkpt lat="47.05538" lon="2.21351">
        <ele>135</ele>
        <time>2018-04-17T14:10:18Z</time>
      </trkpt>
      <trkpt lat="47.05546" lon="2.21309">
        <ele>133</ele>
        <time>2018-04-17T14:10:27Z</time>
      </trkpt>
      <trkpt lat="47.05548" lon="2.21298">
        <ele>133</ele>
        <time>2018-04-17T14:10:29Z</time>
      </trkpt>
      <trkpt lat="47.0555" lon="2.2129">
        <ele>133</ele>
        <time>2018-04-17T14:10:32Z</time>
      </trkpt>
      <trkpt lat="47.05552" lon="2.2129">
        <ele>133</ele>
        <time>2018-04-17T14:10:33Z</time>
      </trkpt>
      <trkpt lat="47.05558" lon="2.21295">
        <ele>133</ele>
        <time>2018-04-17T14:10:37Z</time>
      </trkpt>
      <trkpt lat="47.05563" lon="2.21317">
        <ele>133</ele>
        <time>2018-04-17T14:10:42Z</time>
      </trkpt>
      <trkpt lat="47.05567" lon="2.21328">
        <ele>134</ele>
        <time>2018-04-17T14:10:44Z</time>
      </trkpt>
      <trkpt lat="47.05577" lon="2.21345">
        <ele>135</ele>
        <time>2018-04-17T14:10:48Z</time>
      </trkpt>
      <trkpt lat="47.05581" lon="2.21355">
        <ele>135</ele>
        <time>2018-04-17T14:10:51Z</time>
      </trkpt>
      <trkpt lat="47.05584" lon="2.21362">
        <ele>136</ele>
        <time>2018-04-17T14:10:53Z</time>
      </trkpt>
      <trkpt lat="47.05598" lon="2.2139">
        <ele>136</ele>
        <time>2018-04-17T14:11:01Z</time>
      </trkpt>
      <trkpt lat="47.0561" lon="2.21414">
        <ele>137</ele>
        <time>2018-04-17T14:11:07Z</time>
      </trkpt>
      <trkpt lat="47.05629" lon="2.21457">
        <ele>137</ele>
        <time>2018-04-17T14:11:17Z</time>
      </trkpt>
      <trkpt lat="47.05647" lon="2.21495">
        <ele>136</ele>
        <time>2018-04-17T14:11:25Z</time>
      </trkpt>
      <trkpt lat="47.0565" lon="2.215">
        <ele>136</ele>
        <time>2018-04-17T14:11:26Z</time>
      </trkpt>
      <trkpt lat="47.05674" lon="2.21547">
        <ele>135</ele>
        <time>2018-04-17T14:11:36Z</time>
      </trkpt>
      <trkpt lat="47.05696" lon="2.2158">
        <ele>135</ele>
        <time>2018-04-17T14:11:43Z</time>
      </trkpt>
      <trkpt lat="47.05716" lon="2.216">
        <ele>135</ele>
        <time>2018-04-17T14:11:48Z</time>
      </trkpt>
      <trkpt lat="47.05719" lon="2.21605">
        <ele>135</ele>
        <time>2018-04-17T14:11:49Z</time>
      </trkpt>
      <trkpt lat="47.05739" lon="2.2164">
        <ele>134</ele>
        <time>2018-04-17T14:11:55Z</time>
      </trkpt>
      <trkpt lat="47.05743" lon="2.21645">
        <ele>134</ele>
        <time>2018-04-17T14:11:56Z</time>
      </trkpt>
      <trkpt lat="47.05756" lon="2.21674">
        <ele>133</ele>
        <time>2018-04-17T14:12:01Z</time>
      </trkpt>
      <trkpt lat="47.05764" lon="2.21688">
        <ele>133</ele>
        <time>2018-04-17T14:12:05Z</time>
      </trkpt>
      <trkpt lat="47.05776" lon="2.21716">
        <ele>133</ele>
        <time>2018-04-17T14:12:11Z</time>
      </trkpt>
      <trkpt lat="47.05788" lon="2.21741">
        <ele>133</ele>
        <time>2018-04-17T14:12:16Z</time>
      </trkpt>
      <trkpt lat="47.05793" lon="2.2175">
        <ele>132</ele>
        <time>2018-04-17T14:12:18Z</time>
      </trkpt>
      <trkpt lat="47.05803" lon="2.21763">
        <ele>133</ele>
        <time>2018-04-17T14:12:21Z</time>
      </trkpt>
      <trkpt lat="47.05807" lon="2.21766">
        <ele>133</ele>
        <time>2018-04-17T14:12:22Z</time>
      </trkpt>
      <trkpt lat="47.05815" lon="2.21774">
        <ele>132</ele>
        <time>2018-04-17T14:12:24Z</time>
      </trkpt>
      <trkpt lat="47.0583" lon="2.21788">
        <ele>132</ele>
        <time>2018-04-17T14:12:28Z</time>
      </trkpt>
      <trkpt lat="47.0584" lon="2.21797">
        <ele>130</ele>
        <time>2018-04-17T14:12:31Z</time>
      </trkpt>
      <trkpt lat="47.0585" lon="2.21807">
        <ele>130</ele>
        <time>2018-04-17T14:12:34Z</time>
      </trkpt>
      <trkpt lat="47.05865" lon="2.21827">
        <ele>130</ele>
        <time>2018-04-17T14:12:39Z</time>
      </trkpt>
      <trkpt lat="47.05869" lon="2.21832">
        <ele>130</ele>
        <time>2018-04-17T14:12:40Z</time>
      </trkpt>
      <trkpt lat="47.05883" lon="2.2184">
        <ele>129</ele>
        <time>2018-04-17T14:12:44Z</time>
      </trkpt>
      <trkpt lat="47.05886" lon="2.21838">
        <ele>129</ele>
        <time>2018-04-17T14:12:45Z</time>
      </trkpt>
      <trkpt lat="47.05895" lon="2.21823">
        <ele>129</ele>
        <time>2018-04-17T14:12:48Z</time>
      </trkpt>
      <trkpt lat="47.05899" lon="2.21812">
        <ele>129</ele>
        <time>2018-04-17T14:12:50Z</time>
      </trkpt>
      <trkpt lat="47.05905" lon="2.21796">
        <ele>129</ele>
        <time>2018-04-17T14:12:53Z</time>
      </trkpt>
      <trkpt lat="47.05924" lon="2.21754">
        <ele>127</ele>
        <time>2018-04-17T14:13:01Z</time>
      </trkpt>
      <trkpt lat="47.05942" lon="2.21711">
        <ele>130</ele>
        <time>2018-04-17T14:13:09Z</time>
      </trkpt>
      <trkpt lat="47.05962" lon="2.21676">
        <ele>131</ele>
        <time>2018-04-17T14:13:17Z</time>
      </trkpt>
      <trkpt lat="47.05976" lon="2.21677">
        <ele>131</ele>
        <time>2018-04-17T14:13:21Z</time>
      </trkpt>
      <trkpt lat="47.05999" lon="2.21689">
        <ele>131</ele>
        <time>2018-04-17T14:13:26Z</time>
      </trkpt>
      <trkpt lat="47.06007" lon="2.21693">
        <ele>132</ele>
        <time>2018-04-17T14:13:28Z</time>
      </trkpt>
      <trkpt lat="47.06033" lon="2.21707">
        <ele>132</ele>
        <time>2018-04-17T14:13:34Z</time>
      </trkpt>
      <trkpt lat="47.06068" lon="2.21727">
        <ele>131</ele>
        <time>2018-04-17T14:13:42Z</time>
      </trkpt>
      <trkpt lat="47.06093" lon="2.21741">
        <ele>131</ele>
        <time>2018-04-17T14:13:48Z</time>
      </trkpt>
      <trkpt lat="47.06101" lon="2.21744">
        <ele>131</ele>
        <time>2018-04-17T14:13:50Z</time>
      </trkpt>
      <trkpt lat="47.06119" lon="2.21755">
        <ele>129</ele>
        <time>2018-04-17T14:13:54Z</time>
      </trkpt>
      <trkpt lat="47.06135" lon="2.21766">
        <ele>129</ele>
        <time>2018-04-17T14:13:59Z</time>
      </trkpt>
      <trkpt lat="47.06151" lon="2.21774">
        <ele>129</ele>
        <time>2018-04-17T14:14:04Z</time>
      </trkpt>
      <trkpt lat="47.0618" lon="2.21791">
        <ele>129</ele>
        <time>2018-04-17T14:14:11Z</time>
      </trkpt>
      <trkpt lat="47.06215" lon="2.21811">
        <ele>129</ele>
        <time>2018-04-17T14:14:20Z</time>
      </trkpt>
      <trkpt lat="47.06258" lon="2.21835">
        <ele>128</ele>
        <time>2018-04-17T14:14:30Z</time>
      </trkpt>
      <trkpt lat="47.06277" lon="2.21845">
        <ele>128</ele>
        <time>2018-04-17T14:14:34Z</time>
      </trkpt>
      <trkpt lat="47.06301" lon="2.21858">
        <ele>128</ele>
        <time>2018-04-17T14:14:39Z</time>
      </trkpt>
      <trkpt lat="47.0634" lon="2.21881">
        <ele>128</ele>
        <time>2018-04-17T14:14:47Z</time>
      </trkpt>
      <trkpt lat="47.06346" lon="2.21883">
        <ele>128</ele>
        <time>2018-04-17T14:14:48Z</time>
      </trkpt>
      <trkpt lat="47.06365" lon="2.21898">
        <ele>128</ele>
        <time>2018-04-17T14:14:52Z</time>
      </trkpt>
      <trkpt lat="47.06368" lon="2.21904">
        <ele>128</ele>
        <time>2018-04-17T14:14:53Z</time>
      </trkpt>
      <trkpt lat="47.06374" lon="2.21918">
        <ele>127</ele>
        <time>2018-04-17T14:14:55Z</time>
      </trkpt>
      <trkpt lat="47.06377" lon="2.21925">
        <ele>127</ele>
        <time>2018-04-17T14:14:56Z</time>
      </trkpt>
      <trkpt lat="47.06382" lon="2.21939">
        <ele>127</ele>
        <time>2018-04-17T14:14:58Z</time>
      </trkpt>
      <trkpt lat="47.06387" lon="2.21953">
        <ele>127</ele>
        <time>2018-04-17T14:15:00Z</time>
      </trkpt>
      <trkpt lat="47.06402" lon="2.21989">
        <ele>127</ele>
        <time>2018-04-17T14:15:06Z</time>
      </trkpt>
      <trkpt lat="47.06407" lon="2.22004">
        <ele>126</ele>
        <time>2018-04-17T14:15:09Z</time>
      </trkpt>
      <trkpt lat="47.06409" lon="2.2201">
        <ele>126</ele>
        <time>2018-04-17T14:15:10Z</time>
      </trkpt>
      <trkpt lat="47.06411" lon="2.22016">
        <ele>126</ele>
        <time>2018-04-17T14:15:11Z</time>
      </trkpt>
      <trkpt lat="47.0642" lon="2.22044">
        <ele>126</ele>
        <time>2018-04-17T14:15:16Z</time>
      </trkpt>
      <trkpt lat="47.06427" lon="2.22071">
        <ele>125</ele>
        <time>2018-04-17T14:15:21Z</time>
      </trkpt>
      <trkpt lat="47.06439" lon="2.22093">
        <ele>124</ele>
        <time>2018-04-17T14:15:26Z</time>
      </trkpt>
      <trkpt lat="47.06448" lon="2.22114">
        <ele>124</ele>
        <time>2018-04-17T14:15:31Z</time>
      </trkpt>
      <trkpt lat="47.06458" lon="2.22141">
        <ele>124</ele>
        <time>2018-04-17T14:15:37Z</time>
      </trkpt>
      <trkpt lat="47.06467" lon="2.22168">
        <ele>123</ele>
        <time>2018-04-17T14:15:43Z</time>
      </trkpt>
      <trkpt lat="47.06475" lon="2.22186">
        <ele>123</ele>
        <time>2018-04-17T14:15:49Z</time>
      </trkpt>
      <trkpt lat="47.06479" lon="2.22184">
        <ele>123</ele>
        <time>2018-04-17T14:15:51Z</time>
      </trkpt>
      <trkpt lat="47.06482" lon="2.22181">
        <ele>123</ele>
        <time>2018-04-17T14:15:53Z</time>
      </trkpt>
      <trkpt lat="47.06496" lon="2.22167">
        <ele>123</ele>
        <time>2018-04-17T14:15:59Z</time>
      </trkpt>
      <trkpt lat="47.06508" lon="2.22154">
        <ele>123</ele>
        <time>2018-04-17T14:16:05Z</time>
      </trkpt>
      <trkpt lat="47.06519" lon="2.22133">
        <ele>124</ele>
        <time>2018-04-17T14:16:11Z</time>
      </trkpt>
      <trkpt lat="47.06536" lon="2.22096">
        <ele>124</ele>
        <time>2018-04-17T14:16:20Z</time>
      </trkpt>
      <trkpt lat="47.06544" lon="2.22077">
        <ele>126</ele>
        <time>2018-04-17T14:16:25Z</time>
      </trkpt>
      <trkpt lat="47.06556" lon="2.22053">
        <ele>126</ele>
        <time>2018-04-17T14:16:31Z</time>
      </trkpt>
      <trkpt lat="47.06569" lon="2.22028">
        <ele>126</ele>
        <time>2018-04-17T14:16:38Z</time>
      </trkpt>
      <trkpt lat="47.06584" lon="2.21998">
        <ele>125</ele>
        <time>2018-04-17T14:16:45Z</time>
      </trkpt>
      <trkpt lat="47.06598" lon="2.21966">
        <ele>125</ele>
        <time>2018-04-17T14:16:52Z</time>
      </trkpt>
      <trkpt lat="47.0661" lon="2.2194">
        <ele>125</ele>
        <time>2018-04-17T14:16:59Z</time>
      </trkpt>
      <trkpt lat="47.06615" lon="2.21931">
        <ele>125</ele>
        <time>2018-04-17T14:17:05Z</time>
      </trkpt>
      <trkpt lat="47.06621" lon="2.21922">
        <ele>125</ele>
        <time>2018-04-17T14:17:11Z</time>
      </trkpt>
      <trkpt lat="47.06629" lon="2.21921">
        <ele>124</ele>
        <time>2018-04-17T14:17:15Z</time>
      </trkpt>
      <trkpt lat="47.0663" lon="2.21923">
        <ele>124</ele>
        <time>2018-04-17T14:17:16Z</time>
      </trkpt>
      <trkpt lat="47.06636" lon="2.21936">
        <ele>124</ele>
        <time>2018-04-17T14:17:22Z</time>
      </trkpt>
      <trkpt lat="47.06638" lon="2.21941">
        <ele>124</ele>
        <time>2018-04-17T14:17:25Z</time>
      </trkpt>
      <trkpt lat="47.0664" lon="2.21944">
        <ele>124</ele>
        <time>2018-04-17T14:17:27Z</time>
      </trkpt>
      <trkpt lat="47.0664" lon="2.21944">
        <ele>124</ele>
        <time>2018-04-17T14:17:32Z</time>
      </trkpt>
      <trkpt lat="47.0664" lon="2.21944">
        <ele>124</ele>
        <time>2018-04-17T14:17:46Z</time>
      </trkpt>
      <trkpt lat="47.0664" lon="2.21944">
        <ele>124</ele>
        <time>2018-04-17T14:17:57Z</time>
      </trkpt>
      <trkpt lat="47.0664" lon="2.21944">
        <ele>124</ele>
        <time>2018-04-17T14:18:07Z</time>
      </trkpt>
      <trkpt lat="47.0664" lon="2.21943">
        <ele>124</ele>
        <time>2018-04-17T14:18:16Z</time>
      </trkpt>
      <trkpt lat="47.0664" lon="2.21943">
        <ele>124</ele>
        <time>2018-04-17T14:18:29Z</time>
      </trkpt>
      <trkpt lat="47.0664" lon="2.21943">
        <ele>124</ele>
        <time>2018-04-17T14:18:44Z</time>
      </trkpt>
      <trkpt lat="47.0664" lon="2.21943">
        <ele>124</ele>
        <time>2018-04-17T14:18:54Z</time>
      </trkpt>
      <trkpt lat="47.0664" lon="2.21943">
        <ele>124</ele>
        <time>2018-04-17T14:19:05Z</time>
      </trkpt>
      <trkpt lat="47.0664" lon="2.21943">
        <ele>124</ele>
        <time>2018-04-17T14:19:18Z</time>
      </trkpt>
      <trkpt lat="47.0664" lon="2.21944">
        <ele>124</ele>
        <time>2018-04-17T14:19:32Z</time>
      </trkpt>
      <trkpt lat="47.0664" lon="2.21944">
        <ele>124</ele>
        <time>2018-04-17T14:19:47Z</time>
      </trkpt>
      <trkpt lat="47.0664" lon="2.21944">
        <ele>124</ele>
        <time>2018-04-17T14:20:01Z</time>
      </trkpt>
      <trkpt lat="47.0664" lon="2.21944">
        <ele>124</ele>
        <time>2018-04-17T14:20:15Z</time>
      </trkpt>
      <trkpt lat="47.0664" lon="2.21944">
        <ele>124</ele>
        <time>2018-04-17T14:20:27Z</time>
      </trkpt>
      <trkpt lat="47.0664" lon="2.21944">
        <ele>124</ele>
        <time>2018-04-17T14:20:32Z</time>
      </trkpt>
      <trkpt lat="47.0664" lon="2.21944">
        <ele>124</ele>
        <time>2018-04-17T14:20:45Z</time>
      </trkpt>
      <trkpt lat="47.0664" lon="2.21943">
        <ele>124</ele>
        <time>2018-04-17T14:20:53Z</time>
      </trkpt>
      <trkpt lat="47.06638" lon="2.2194">
        <ele>124</ele>
        <time>2018-04-17T14:21:04Z</time>
      </trkpt>
      <trkpt lat="47.06635" lon="2.21935">
        <ele>124</ele>
        <time>2018-04-17T14:21:10Z</time>
      </trkpt>
      <trkpt lat="47.06629" lon="2.21923">
        <ele>124</ele>
        <time>2018-04-17T14:21:18Z</time>
      </trkpt>
      <trkpt lat="47.06623" lon="2.21914">
        <ele>126</ele>
        <time>2018-04-17T14:21:23Z</time>
      </trkpt>
      <trkpt lat="47.06626" lon="2.21907">
        <ele>126</ele>
        <time>2018-04-17T14:21:27Z</time>
      </trkpt>
      <trkpt lat="47.06629" lon="2.21901">
        <ele>126</ele>
        <time>2018-04-17T14:21:31Z</time>
      </trkpt>
      <trkpt lat="47.06631" lon="2.21898">
        <ele>126</ele>
        <time>2018-04-17T14:21:33Z</time>
      </trkpt>
      <trkpt lat="47.06637" lon="2.21887">
        <ele>126</ele>
        <time>2018-04-17T14:21:39Z</time>
      </trkpt>
      <trkpt lat="47.06643" lon="2.21873">
        <ele>126</ele>
        <time>2018-04-17T14:21:44Z</time>
      </trkpt>
      <trkpt lat="47.06652" lon="2.21854">
        <ele>125</ele>
        <time>2018-04-17T14:21:50Z</time>
      </trkpt>
      <trkpt lat="47.06661" lon="2.21835">
        <ele>124</ele>
        <time>2018-04-17T14:21:57Z</time>
      </trkpt>
      <trkpt lat="47.06669" lon="2.21813">
        <ele>123</ele>
        <time>2018-04-17T14:22:04Z</time>
      </trkpt>
      <trkpt lat="47.06673" lon="2.21783">
        <ele>123</ele>
        <time>2018-04-17T14:22:13Z</time>
      </trkpt>
      <trkpt lat="47.06672" lon="2.21755">
        <ele>124</ele>
        <time>2018-04-17T14:22:21Z</time>
      </trkpt>
      <trkpt lat="47.06673" lon="2.21753">
        <ele>124</ele>
        <time>2018-04-17T14:22:22Z</time>
      </trkpt>
      <trkpt lat="47.06672" lon="2.21744">
        <ele>124</ele>
        <time>2018-04-17T14:22:26Z</time>
      </trkpt>
      <trkpt lat="47.06673" lon="2.21724">
        <ele>124</ele>
        <time>2018-04-17T14:22:32Z</time>
      </trkpt>
      <trkpt lat="47.06677" lon="2.21709">
        <ele>124</ele>
        <time>2018-04-17T14:22:36Z</time>
      </trkpt>
      <trkpt lat="47.06683" lon="2.2168">
        <ele>124</ele>
        <time>2018-04-17T14:22:43Z</time>
      </trkpt>
      <trkpt lat="47.06689" lon="2.21657">
        <ele>125</ele>
        <time>2018-04-17T14:22:49Z</time>
      </trkpt>
      <trkpt lat="47.06689" lon="2.21654">
        <ele>125</ele>
        <time>2018-04-17T14:22:50Z</time>
      </trkpt>
      <trkpt lat="47.06693" lon="2.21637">
        <ele>124</ele>
        <time>2018-04-17T14:22:55Z</time>
      </trkpt>
      <trkpt lat="47.06698" lon="2.21617">
        <ele>124</ele>
        <time>2018-04-17T14:23:01Z</time>
      </trkpt>
      <trkpt lat="47.06705" lon="2.21587">
        <ele>124</ele>
        <time>2018-04-17T14:23:09Z</time>
      </trkpt>
      <trkpt lat="47.0671" lon="2.21565">
        <ele>125</ele>
        <time>2018-04-17T14:23:15Z</time>
      </trkpt>
      <trkpt lat="47.06715" lon="2.21541">
        <ele>125</ele>
        <time>2018-04-17T14:23:21Z</time>
      </trkpt>
      <trkpt lat="47.06715" lon="2.21513">
        <ele>125</ele>
        <time>2018-04-17T14:23:28Z</time>
      </trkpt>
      <trkpt lat="47.06713" lon="2.2149">
        <ele>125</ele>
        <time>2018-04-17T14:23:34Z</time>
      </trkpt>
      <trkpt lat="47.06713" lon="2.2146">
        <ele>125</ele>
        <time>2018-04-17T14:23:42Z</time>
      </trkpt>
      <trkpt lat="47.06712" lon="2.21435">
        <ele>125</ele>
        <time>2018-04-17T14:23:49Z</time>
      </trkpt>
      <trkpt lat="47.06713" lon="2.21405">
        <ele>125</ele>
        <time>2018-04-17T14:23:57Z</time>
      </trkpt>
      <trkpt lat="47.06712" lon="2.21373">
        <ele>124</ele>
        <time>2018-04-17T14:24:05Z</time>
      </trkpt>
      <trkpt lat="47.06711" lon="2.21348">
        <ele>124</ele>
        <time>2018-04-17T14:24:12Z</time>
      </trkpt>
      <trkpt lat="47.0671" lon="2.21322">
        <ele>123</ele>
        <time>2018-04-17T14:24:19Z</time>
      </trkpt>
      <trkpt lat="47.06708" lon="2.21298">
        <ele>124</ele>
        <time>2018-04-17T14:24:25Z</time>
      </trkpt>
      <trkpt lat="47.06707" lon="2.21277">
        <ele>124</ele>
        <time>2018-04-17T14:24:31Z</time>
      </trkpt>
      <trkpt lat="47.06707" lon="2.2125">
        <ele>124</ele>
        <time>2018-04-17T14:24:38Z</time>
      </trkpt>
      <trkpt lat="47.0671" lon="2.21237">
        <ele>123</ele>
        <time>2018-04-17T14:24:41Z</time>
      </trkpt>
      <trkpt lat="47.06716" lon="2.21218">
        <ele>123</ele>
        <time>2018-04-17T14:24:46Z</time>
      </trkpt>
      <trkpt lat="47.06731" lon="2.21197">
        <ele>123</ele>
        <time>2018-04-17T14:24:53Z</time>
      </trkpt>
      <trkpt lat="47.06745" lon="2.21177">
        <ele>121</ele>
        <time>2018-04-17T14:25:00Z</time>
      </trkpt>
      <trkpt lat="47.06761" lon="2.21151">
        <ele>119</ele>
        <time>2018-04-17T14:25:08Z</time>
      </trkpt>
      <trkpt lat="47.06772" lon="2.21124">
        <ele>119</ele>
        <time>2018-04-17T14:25:15Z</time>
      </trkpt>
      <trkpt lat="47.06779" lon="2.211">
        <ele>119</ele>
        <time>2018-04-17T14:25:21Z</time>
      </trkpt>
      <trkpt lat="47.0679" lon="2.21062">
        <ele>118</ele>
        <time>2018-04-17T14:25:30Z</time>
      </trkpt>
      <trkpt lat="47.06799" lon="2.21033">
        <ele>118</ele>
        <time>2018-04-17T14:25:37Z</time>
      </trkpt>
      <trkpt lat="47.06804" lon="2.21006">
        <ele>118</ele>
        <time>2018-04-17T14:25:43Z</time>
      </trkpt>
      <trkpt lat="47.06809" lon="2.20988">
        <ele>118</ele>
        <time>2018-04-17T14:25:48Z</time>
      </trkpt>
      <trkpt lat="47.0681" lon="2.20987">
        <ele>118</ele>
        <time>2018-04-17T14:25:49Z</time>
      </trkpt>
      <trkpt lat="47.06812" lon="2.20981">
        <ele>118</ele>
        <time>2018-04-17T14:25:52Z</time>
      </trkpt>
      <trkpt lat="47.06813" lon="2.20974">
        <ele>118</ele>
        <time>2018-04-17T14:25:55Z</time>
      </trkpt>
      <trkpt lat="47.06815" lon="2.20954">
        <ele>118</ele>
        <time>2018-04-17T14:26:01Z</time>
      </trkpt>
      <trkpt lat="47.06814" lon="2.20928">
        <ele>118</ele>
        <time>2018-04-17T14:26:08Z</time>
      </trkpt>
      <trkpt lat="47.06813" lon="2.20901">
        <ele>118</ele>
        <time>2018-04-17T14:26:15Z</time>
      </trkpt>
      <trkpt lat="47.06812" lon="2.20873">
        <ele>118</ele>
        <time>2018-04-17T14:26:22Z</time>
      </trkpt>
      <trkpt lat="47.06815" lon="2.20839">
        <ele>119</ele>
        <time>2018-04-17T14:26:30Z</time>
      </trkpt>
      <trkpt lat="47.06824" lon="2.20823">
        <ele>119</ele>
        <time>2018-04-17T14:26:35Z</time>
      </trkpt>
      <trkpt lat="47.06842" lon="2.20797">
        <ele>119</ele>
        <time>2018-04-17T14:26:43Z</time>
      </trkpt>
      <trkpt lat="47.0686" lon="2.2077">
        <ele>118</ele>
        <time>2018-04-17T14:26:51Z</time>
      </trkpt>
      <trkpt lat="47.06872" lon="2.20745">
        <ele>118</ele>
        <time>2018-04-17T14:26:59Z</time>
      </trkpt>
      <trkpt lat="47.06873" lon="2.20728">
        <ele>118</ele>
        <time>2018-04-17T14:27:03Z</time>
      </trkpt>
      <trkpt lat="47.06864" lon="2.20703">
        <ele>118</ele>
        <time>2018-04-17T14:27:09Z</time>
      </trkpt>
      <trkpt lat="47.06849" lon="2.20669">
        <ele>119</ele>
        <time>2018-04-17T14:27:18Z</time>
      </trkpt>
      <trkpt lat="47.06834" lon="2.20643">
        <ele>119</ele>
        <time>2018-04-17T14:27:25Z</time>
      </trkpt>
      <trkpt lat="47.06811" lon="2.20608">
        <ele>120</ele>
        <time>2018-04-17T14:27:36Z</time>
      </trkpt>
      <trkpt lat="47.06802" lon="2.20596">
        <ele>120</ele>
        <time>2018-04-17T14:27:40Z</time>
      </trkpt>
      <trkpt lat="47.06793" lon="2.20582">
        <ele>120</ele>
        <time>2018-04-17T14:27:45Z</time>
      </trkpt>
      <trkpt lat="47.06787" lon="2.20574">
        <ele>121</ele>
        <time>2018-04-17T14:27:49Z</time>
      </trkpt>
      <trkpt lat="47.06785" lon="2.20569">
        <ele>121</ele>
        <time>2018-04-17T14:27:51Z</time>
      </trkpt>
      <trkpt lat="47.06785" lon="2.20566">
        <ele>121</ele>
        <time>2018-04-17T14:27:52Z</time>
      </trkpt>
      <trkpt lat="47.06788" lon="2.20558">
        <ele>121</ele>
        <time>2018-04-17T14:27:55Z</time>
      </trkpt>
      <trkpt lat="47.06802" lon="2.20532">
        <ele>121</ele>
        <time>2018-04-17T14:28:02Z</time>
      </trkpt>
      <trkpt lat="47.06807" lon="2.20492">
        <ele>121</ele>
        <time>2018-04-17T14:28:10Z</time>
      </trkpt>
      <trkpt lat="47.06808" lon="2.20454">
        <ele>120</ele>
        <time>2018-04-17T14:28:18Z</time>
      </trkpt>
      <trkpt lat="47.06807" lon="2.20428">
        <ele>120</ele>
        <time>2018-04-17T14:28:25Z</time>
      </trkpt>
      <trkpt lat="47.06815" lon="2.20413">
        <ele>119</ele>
        <time>2018-04-17T14:28:30Z</time>
      </trkpt>
      <trkpt lat="47.06829" lon="2.20408">
        <ele>120</ele>
        <time>2018-04-17T14:28:34Z</time>
      </trkpt>
      <trkpt lat="47.06848" lon="2.204">
        <ele>119</ele>
        <time>2018-04-17T14:28:39Z</time>
      </trkpt>
      <trkpt lat="47.06861" lon="2.20395">
        <ele>118</ele>
        <time>2018-04-17T14:28:42Z</time>
      </trkpt>
      <trkpt lat="47.06865" lon="2.20394">
        <ele>118</ele>
        <time>2018-04-17T14:28:43Z</time>
      </trkpt>
      <trkpt lat="47.06898" lon="2.20381">
        <ele>118</ele>
        <time>2018-04-17T14:28:50Z</time>
      </trkpt>
      <trkpt lat="47.06908" lon="2.20377">
        <ele>118</ele>
        <time>2018-04-17T14:28:52Z</time>
      </trkpt>
      <trkpt lat="47.06922" lon="2.20372">
        <ele>117</ele>
        <time>2018-04-17T14:28:55Z</time>
      </trkpt>
      <trkpt lat="47.06941" lon="2.20364">
        <ele>116</ele>
        <time>2018-04-17T14:28:59Z</time>
      </trkpt>
      <trkpt lat="47.06982" lon="2.20351">
        <ele>116</ele>
        <time>2018-04-17T14:29:08Z</time>
      </trkpt>
      <trkpt lat="47.07019" lon="2.20337">
        <ele>114</ele>
        <time>2018-04-17T14:29:16Z</time>
      </trkpt>
      <trkpt lat="47.07056" lon="2.20325">
        <ele>114</ele>
        <time>2018-04-17T14:29:24Z</time>
      </trkpt>
      <trkpt lat="47.07079" lon="2.20316">
        <ele>114</ele>
        <time>2018-04-17T14:29:30Z</time>
      </trkpt>
      <trkpt lat="47.07101" lon="2.20308">
        <ele>114</ele>
        <time>2018-04-17T14:29:36Z</time>
      </trkpt>
      <trkpt lat="47.07128" lon="2.20297">
        <ele>114</ele>
        <time>2018-04-17T14:29:43Z</time>
      </trkpt>
      <trkpt lat="47.07176" lon="2.2028">
        <ele>115</ele>
        <time>2018-04-17T14:29:56Z</time>
      </trkpt>
      <trkpt lat="47.07208" lon="2.20268">
        <ele>115</ele>
        <time>2018-04-17T14:30:05Z</time>
      </trkpt>
      <trkpt lat="47.07251" lon="2.20252">
        <ele>116</ele>
        <time>2018-04-17T14:30:16Z</time>
      </trkpt>
      <trkpt lat="47.07283" lon="2.20241">
        <ele>116</ele>
        <time>2018-04-17T14:30:24Z</time>
      </trkpt>
      <trkpt lat="47.0732" lon="2.20227">
        <ele>116</ele>
        <time>2018-04-17T14:30:33Z</time>
      </trkpt>
      <trkpt lat="47.07363" lon="2.20213">
        <ele>116</ele>
        <time>2018-04-17T14:30:43Z</time>
      </trkpt>
      <trkpt lat="47.07393" lon="2.20202">
        <ele>117</ele>
        <time>2018-04-17T14:30:50Z</time>
      </trkpt>
      <trkpt lat="47.07416" lon="2.20194">
        <ele>117</ele>
        <time>2018-04-17T14:30:56Z</time>
      </trkpt>
      <trkpt lat="47.07456" lon="2.20179">
        <ele>116</ele>
        <time>2018-04-17T14:31:06Z</time>
      </trkpt>
      <trkpt lat="47.07488" lon="2.20168">
        <ele>115</ele>
        <time>2018-04-17T14:31:14Z</time>
      </trkpt>
      <trkpt lat="47.07527" lon="2.20154">
        <ele>114</ele>
        <time>2018-04-17T14:31:23Z</time>
      </trkpt>
      <trkpt lat="47.07564" lon="2.20141">
        <ele>114</ele>
        <time>2018-04-17T14:31:32Z</time>
      </trkpt>
      <trkpt lat="47.07568" lon="2.20139">
        <ele>114</ele>
        <time>2018-04-17T14:31:33Z</time>
      </trkpt>
      <trkpt lat="47.0761" lon="2.20123">
        <ele>114</ele>
        <time>2018-04-17T14:31:44Z</time>
      </trkpt>
      <trkpt lat="47.07637" lon="2.2011">
        <ele>114</ele>
        <time>2018-04-17T14:31:51Z</time>
      </trkpt>
      <trkpt lat="47.07657" lon="2.201">
        <ele>114</ele>
        <time>2018-04-17T14:31:56Z</time>
      </trkpt>
      <trkpt lat="47.07665" lon="2.20096">
        <ele>114</ele>
        <time>2018-04-17T14:31:58Z</time>
      </trkpt>
      <trkpt lat="47.07674" lon="2.20091">
        <ele>115</ele>
        <time>2018-04-17T14:32:00Z</time>
      </trkpt>
      <trkpt lat="47.07718" lon="2.20066">
        <ele>115</ele>
        <time>2018-04-17T14:32:10Z</time>
      </trkpt>
      <trkpt lat="47.07756" lon="2.20044">
        <ele>117</ele>
        <time>2018-04-17T14:32:18Z</time>
      </trkpt>
      <trkpt lat="47.07799" lon="2.20022">
        <ele>118</ele>
        <time>2018-04-17T14:32:27Z</time>
      </trkpt>
      <trkpt lat="47.07846" lon="2.19996">
        <ele>119</ele>
        <time>2018-04-17T14:32:37Z</time>
      </trkpt>
      <trkpt lat="47.07864" lon="2.19985">
        <ele>119</ele>
        <time>2018-04-17T14:32:41Z</time>
      </trkpt>
      <trkpt lat="47.07885" lon="2.19972">
        <ele>119</ele>
        <time>2018-04-17T14:32:46Z</time>
      </trkpt>
      <trkpt lat="47.07911" lon="2.19952">
        <ele>120</ele>
        <time>2018-04-17T14:32:53Z</time>
      </trkpt>
      <trkpt lat="47.07915" lon="2.1995">
        <ele>120</ele>
        <time>2018-04-17T14:32:54Z</time>
      </trkpt>
      <trkpt lat="47.07929" lon="2.19939">
        <ele>122</ele>
        <time>2018-04-17T14:32:58Z</time>
      </trkpt>
      <trkpt lat="47.07939" lon="2.19931">
        <ele>123</ele>
        <time>2018-04-17T14:33:01Z</time>
      </trkpt>
      <trkpt lat="47.07942" lon="2.19928">
        <ele>123</ele>
        <time>2018-04-17T14:33:02Z</time>
      </trkpt>
      <trkpt lat="47.07952" lon="2.19921">
        <ele>123</ele>
        <time>2018-04-17T14:33:05Z</time>
      </trkpt>
      <trkpt lat="47.07955" lon="2.19919">
        <ele>123</ele>
        <time>2018-04-17T14:33:06Z</time>
      </trkpt>
      <trkpt lat="47.07966" lon="2.1991">
        <ele>123</ele>
        <time>2018-04-17T14:33:10Z</time>
      </trkpt>
      <trkpt lat="47.07985" lon="2.19896">
        <ele>124</ele>
        <time>2018-04-17T14:33:16Z</time>
      </trkpt>
      <trkpt lat="47.07991" lon="2.19892">
        <ele>124</ele>
        <time>2018-04-17T14:33:18Z</time>
      </trkpt>
      <trkpt lat="47.08006" lon="2.19887">
        <ele>127</ele>
        <time>2018-04-17T14:33:23Z</time>
      </trkpt>
      <trkpt lat="47.08018" lon="2.19894">
        <ele>127</ele>
        <time>2018-04-17T14:33:27Z</time>
      </trkpt>
      <trkpt lat="47.0802" lon="2.19897">
        <ele>127</ele>
        <time>2018-04-17T14:33:28Z</time>
      </trkpt>
      <trkpt lat="47.08031" lon="2.19913">
        <ele>127</ele>
        <time>2018-04-17T14:33:33Z</time>
      </trkpt>
      <trkpt lat="47.08033" lon="2.19916">
        <ele>127</ele>
        <time>2018-04-17T14:33:34Z</time>
      </trkpt>
      <trkpt lat="47.08036" lon="2.19922">
        <ele>128</ele>
        <time>2018-04-17T14:33:36Z</time>
      </trkpt>
      <trkpt lat="47.08036" lon="2.19927">
        <ele>128</ele>
        <time>2018-04-17T14:33:38Z</time>
      </trkpt>
      <trkpt lat="47.08036" lon="2.19931">
        <ele>128</ele>
        <time>2018-04-17T14:33:40Z</time>
      </trkpt>
      <trkpt lat="47.08037" lon="2.19937">
        <ele>128</ele>
        <time>2018-04-17T14:33:43Z</time>
      </trkpt>
      <trkpt lat="47.08039" lon="2.19956">
        <ele>128</ele>
        <time>2018-04-17T14:33:48Z</time>
      </trkpt>
      <trkpt lat="47.08044" lon="2.19995">
        <ele>128</ele>
        <time>2018-04-17T14:33:55Z</time>
      </trkpt>
      <trkpt lat="47.08047" lon="2.20021">
        <ele>129</ele>
        <time>2018-04-17T14:34:00Z</time>
      </trkpt>
      <trkpt lat="47.0805" lon="2.20051">
        <ele>129</ele>
        <time>2018-04-17T14:34:06Z</time>
      </trkpt>
      <trkpt lat="47.0805" lon="2.20065">
        <ele>129</ele>
        <time>2018-04-17T14:34:09Z</time>
      </trkpt>
      <trkpt lat="47.08053" lon="2.20084">
        <ele>130</ele>
        <time>2018-04-17T14:34:13Z</time>
      </trkpt>
      <trkpt lat="47.08058" lon="2.20107">
        <ele>130</ele>
        <time>2018-04-17T14:34:18Z</time>
      </trkpt>
      <trkpt lat="47.08065" lon="2.20137">
        <ele>130</ele>
        <time>2018-04-17T14:34:25Z</time>
      </trkpt>
      <trkpt lat="47.08073" lon="2.20162">
        <ele>131</ele>
        <time>2018-04-17T14:34:31Z</time>
      </trkpt>
      <trkpt lat="47.08085" lon="2.20186">
        <ele>131</ele>
        <time>2018-04-17T14:34:37Z</time>
      </trkpt>
      <trkpt lat="47.08093" lon="2.20203">
        <ele>131</ele>
        <time>2018-04-17T14:34:41Z</time>
      </trkpt>
      <trkpt lat="47.08108" lon="2.20237">
        <ele>131</ele>
        <time>2018-04-17T14:34:49Z</time>
      </trkpt>
      <trkpt lat="47.08121" lon="2.20263">
        <ele>131</ele>
        <time>2018-04-17T14:34:56Z</time>
      </trkpt>
      <trkpt lat="47.0813" lon="2.20279">
        <ele>131</ele>
        <time>2018-04-17T14:35:02Z</time>
      </trkpt>
      <trkpt lat="47.08132" lon="2.2028">
        <ele>131</ele>
        <time>2018-04-17T14:35:05Z</time>
      </trkpt>
      <trkpt lat="47.08132" lon="2.2028">
        <ele>131</ele>
        <time>2018-04-17T14:35:06Z</time>
      </trkpt>
      <trkpt lat="47.08135" lon="2.20282">
        <ele>131</ele>
        <time>2018-04-17T14:35:10Z</time>
      </trkpt>
      <trkpt lat="47.08137" lon="2.20282">
        <ele>131</ele>
        <time>2018-04-17T14:35:11Z</time>
      </trkpt>
      <trkpt lat="47.08146" lon="2.2029">
        <ele>131</ele>
        <time>2018-04-17T14:35:15Z</time>
      </trkpt>
      <trkpt lat="47.08147" lon="2.20294">
        <ele>131</ele>
        <time>2018-04-17T14:35:16Z</time>
      </trkpt>
      <trkpt lat="47.08157" lon="2.20321">
        <ele>131</ele>
        <time>2018-04-17T14:35:22Z</time>
      </trkpt>
      <trkpt lat="47.08162" lon="2.20339">
        <ele>131</ele>
        <time>2018-04-17T14:35:25Z</time>
      </trkpt>
      <trkpt lat="47.08167" lon="2.20359">
        <ele>130</ele>
        <time>2018-04-17T14:35:28Z</time>
      </trkpt>
      <trkpt lat="47.08171" lon="2.20374">
        <ele>130</ele>
        <time>2018-04-17T14:35:30Z</time>
      </trkpt>
      <trkpt lat="47.08179" lon="2.20407">
        <ele>130</ele>
        <time>2018-04-17T14:35:34Z</time>
      </trkpt>
      <trkpt lat="47.08181" lon="2.20415">
        <ele>130</ele>
        <time>2018-04-17T14:35:35Z</time>
      </trkpt>
      <trkpt lat="47.08194" lon="2.20471">
        <ele>129</ele>
        <time>2018-04-17T14:35:42Z</time>
      </trkpt>
      <trkpt lat="47.08196" lon="2.20478">
        <ele>129</ele>
        <time>2018-04-17T14:35:43Z</time>
      </trkpt>
      <trkpt lat="47.08204" lon="2.20511">
        <ele>129</ele>
        <time>2018-04-17T14:35:48Z</time>
      </trkpt>
      <trkpt lat="47.08207" lon="2.20524">
        <ele>129</ele>
        <time>2018-04-17T14:35:50Z</time>
      </trkpt>
      <trkpt lat="47.0822" lon="2.20577">
        <ele>129</ele>
        <time>2018-04-17T14:35:58Z</time>
      </trkpt>
      <trkpt lat="47.08221" lon="2.20583">
        <ele>129</ele>
        <time>2018-04-17T14:35:59Z</time>
      </trkpt>
      <trkpt lat="47.08236" lon="2.20641">
        <ele>130</ele>
        <time>2018-04-17T14:36:08Z</time>
      </trkpt>
      <trkpt lat="47.08242" lon="2.20667">
        <ele>131</ele>
        <time>2018-04-17T14:36:12Z</time>
      </trkpt>
      <trkpt lat="47.08253" lon="2.2071">
        <ele>130</ele>
        <time>2018-04-17T14:36:19Z</time>
      </trkpt>
      <trkpt lat="47.08258" lon="2.20727">
        <ele>130</ele>
        <time>2018-04-17T14:36:22Z</time>
      </trkpt>
      <trkpt lat="47.08264" lon="2.20748">
        <ele>131</ele>
        <time>2018-04-17T14:36:26Z</time>
      </trkpt>
      <trkpt lat="47.08266" lon="2.20752">
        <ele>131</ele>
        <time>2018-04-17T14:36:27Z</time>
      </trkpt>
      <trkpt lat="47.08278" lon="2.20787">
        <ele>130</ele>
        <time>2018-04-17T14:36:33Z</time>
      </trkpt>
      <trkpt lat="47.08297" lon="2.2084">
        <ele>131</ele>
        <time>2018-04-17T14:36:41Z</time>
      </trkpt>
      <trkpt lat="47.08317" lon="2.20899">
        <ele>132</ele>
        <time>2018-04-17T14:36:50Z</time>
      </trkpt>
      <trkpt lat="47.0833" lon="2.20943">
        <ele>132</ele>
        <time>2018-04-17T14:36:57Z</time>
      </trkpt>
      <trkpt lat="47.08333" lon="2.20956">
        <ele>132</ele>
        <time>2018-04-17T14:36:59Z</time>
      </trkpt>
      <trkpt lat="47.08345" lon="2.2101">
        <ele>132</ele>
        <time>2018-04-17T14:37:07Z</time>
      </trkpt>
      <trkpt lat="47.08348" lon="2.21025">
        <ele>132</ele>
        <time>2018-04-17T14:37:09Z</time>
      </trkpt>
      <trkpt lat="47.08361" lon="2.21081">
        <ele>132</ele>
        <time>2018-04-17T14:37:17Z</time>
      </trkpt>
      <trkpt lat="47.08365" lon="2.211">
        <ele>132</ele>
        <time>2018-04-17T14:37:20Z</time>
      </trkpt>
      <trkpt lat="47.08372" lon="2.2113">
        <ele>132</ele>
        <time>2018-04-17T14:37:25Z</time>
      </trkpt>
      <trkpt lat="47.08388" lon="2.21169">
        <ele>131</ele>
        <time>2018-04-17T14:37:32Z</time>
      </trkpt>
      <trkpt lat="47.08412" lon="2.21215">
        <ele>132</ele>
        <time>2018-04-17T14:37:40Z</time>
      </trkpt>
      <trkpt lat="47.08442" lon="2.21269">
        <ele>132</ele>
        <time>2018-04-17T14:37:49Z</time>
      </trkpt>
      <trkpt lat="47.08445" lon="2.21274">
        <ele>132</ele>
        <time>2018-04-17T14:37:50Z</time>
      </trkpt>
      <trkpt lat="47.08453" lon="2.21286">
        <ele>132</ele>
        <time>2018-04-17T14:37:52Z</time>
      </trkpt>
      <trkpt lat="47.08483" lon="2.21333">
        <ele>132</ele>
        <time>2018-04-17T14:38:00Z</time>
      </trkpt>
      <trkpt lat="47.08521" lon="2.21393">
        <ele>132</ele>
        <time>2018-04-17T14:38:10Z</time>
      </trkpt>
      <trkpt lat="47.08524" lon="2.214">
        <ele>132</ele>
        <time>2018-04-17T14:38:11Z</time>
      </trkpt>
      <trkpt lat="47.08535" lon="2.21419">
        <ele>132</ele>
        <time>2018-04-17T14:38:14Z</time>
      </trkpt>
      <trkpt lat="47.08565" lon="2.21471">
        <ele>131</ele>
        <time>2018-04-17T14:38:22Z</time>
      </trkpt>
      <trkpt lat="47.086" lon="2.21531">
        <ele>130</ele>
        <time>2018-04-17T14:38:31Z</time>
      </trkpt>
      <trkpt lat="47.08608" lon="2.21544">
        <ele>130</ele>
        <time>2018-04-17T14:38:33Z</time>
      </trkpt>
      <trkpt lat="47.0864" lon="2.21598">
        <ele>129</ele>
        <time>2018-04-17T14:38:41Z</time>
      </trkpt>
      <trkpt lat="47.08665" lon="2.21637">
        <ele>129</ele>
        <time>2018-04-17T14:38:47Z</time>
      </trkpt>
      <trkpt lat="47.08668" lon="2.21643">
        <ele>129</ele>
        <time>2018-04-17T14:38:48Z</time>
      </trkpt>
      <trkpt lat="47.08692" lon="2.21677">
        <ele>129</ele>
        <time>2018-04-17T14:38:54Z</time>
      </trkpt>
      <trkpt lat="47.08724" lon="2.21726">
        <ele>129</ele>
        <time>2018-04-17T14:39:03Z</time>
      </trkpt>
      <trkpt lat="47.08747" lon="2.21761">
        <ele>129</ele>
        <time>2018-04-17T14:39:10Z</time>
      </trkpt>
      <trkpt lat="47.08782" lon="2.21813">
        <ele>128</ele>
        <time>2018-04-17T14:39:20Z</time>
      </trkpt>
      <trkpt lat="47.08799" lon="2.21841">
        <ele>128</ele>
        <time>2018-04-17T14:39:25Z</time>
      </trkpt>
      <trkpt lat="47.08806" lon="2.21852">
        <ele>128</ele>
        <time>2018-04-17T14:39:27Z</time>
      </trkpt>
      <trkpt lat="47.08825" lon="2.21883">
        <ele>129</ele>
        <time>2018-04-17T14:39:33Z</time>
      </trkpt>
      <trkpt lat="47.08831" lon="2.21893">
        <ele>129</ele>
        <time>2018-04-17T14:39:35Z</time>
      </trkpt>
      <trkpt lat="47.08834" lon="2.21899">
        <ele>128</ele>
        <time>2018-04-17T14:39:36Z</time>
      </trkpt>
      <trkpt lat="47.08861" lon="2.21948">
        <ele>128</ele>
        <time>2018-04-17T14:39:45Z</time>
      </trkpt>
      <trkpt lat="47.08882" lon="2.21985">
        <ele>127</ele>
        <time>2018-04-17T14:39:52Z</time>
      </trkpt>
      <trkpt lat="47.08899" lon="2.22016">
        <ele>127</ele>
        <time>2018-04-17T14:39:59Z</time>
      </trkpt>
      <trkpt lat="47.08918" lon="2.22049">
        <ele>126</ele>
        <time>2018-04-17T14:40:07Z</time>
      </trkpt>
      <trkpt lat="47.08929" lon="2.22067">
        <ele>126</ele>
        <time>2018-04-17T14:40:11Z</time>
      </trkpt>
      <trkpt lat="47.08943" lon="2.22089">
        <ele>126</ele>
        <time>2018-04-17T14:40:16Z</time>
      </trkpt>
      <trkpt lat="47.08968" lon="2.22129">
        <ele>126</ele>
        <time>2018-04-17T14:40:25Z</time>
      </trkpt>
      <trkpt lat="47.0899" lon="2.22163">
        <ele>125</ele>
        <time>2018-04-17T14:40:33Z</time>
      </trkpt>
      <trkpt lat="47.08992" lon="2.22168">
        <ele>125</ele>
        <time>2018-04-17T14:40:34Z</time>
      </trkpt>
      <trkpt lat="47.09007" lon="2.22191">
        <ele>125</ele>
        <time>2018-04-17T14:40:40Z</time>
      </trkpt>
      <trkpt lat="47.09018" lon="2.22215">
        <ele>125</ele>
        <time>2018-04-17T14:40:46Z</time>
      </trkpt>
      <trkpt lat="47.0903" lon="2.22242">
        <ele>124</ele>
        <time>2018-04-17T14:40:53Z</time>
      </trkpt>
      <trkpt lat="47.09045" lon="2.22278">
        <ele>124</ele>
        <time>2018-04-17T14:41:02Z</time>
      </trkpt>
      <trkpt lat="47.09056" lon="2.22307">
        <ele>124</ele>
        <time>2018-04-17T14:41:09Z</time>
      </trkpt>
      <trkpt lat="47.09065" lon="2.22334">
        <ele>124</ele>
        <time>2018-04-17T14:41:16Z</time>
      </trkpt>
      <trkpt lat="47.09076" lon="2.22366">
        <ele>124</ele>
        <time>2018-04-17T14:41:24Z</time>
      </trkpt>
      <trkpt lat="47.09084" lon="2.22391">
        <ele>125</ele>
        <time>2018-04-17T14:41:30Z</time>
      </trkpt>
      <trkpt lat="47.09091" lon="2.22418">
        <ele>125</ele>
        <time>2018-04-17T14:41:37Z</time>
      </trkpt>
      <trkpt lat="47.09101" lon="2.22449">
        <ele>126</ele>
        <time>2018-04-17T14:41:45Z</time>
      </trkpt>
      <trkpt lat="47.09107" lon="2.22472">
        <ele>126</ele>
        <time>2018-04-17T14:41:51Z</time>
      </trkpt>
      <trkpt lat="47.09115" lon="2.22494">
        <ele>126</ele>
        <time>2018-04-17T14:41:58Z</time>
      </trkpt>
      <trkpt lat="47.09121" lon="2.22518">
        <ele>126</ele>
        <time>2018-04-17T14:42:04Z</time>
      </trkpt>
      <trkpt lat="47.09127" lon="2.22541">
        <ele>126</ele>
        <time>2018-04-17T14:42:10Z</time>
      </trkpt>
      <trkpt lat="47.09134" lon="2.22565">
        <ele>125</ele>
        <time>2018-04-17T14:42:16Z</time>
      </trkpt>
      <trkpt lat="47.09138" lon="2.22582">
        <ele>125</ele>
        <time>2018-04-17T14:42:21Z</time>
      </trkpt>
      <trkpt lat="47.09139" lon="2.22586">
        <ele>125</ele>
        <time>2018-04-17T14:42:22Z</time>
      </trkpt>
      <trkpt lat="47.09144" lon="2.22604">
        <ele>125</ele>
        <time>2018-04-17T14:42:27Z</time>
      </trkpt>
      <trkpt lat="47.09149" lon="2.22624">
        <ele>125</ele>
        <time>2018-04-17T14:42:33Z</time>
      </trkpt>
      <trkpt lat="47.09155" lon="2.22648">
        <ele>125</ele>
        <time>2018-04-17T14:42:39Z</time>
      </trkpt>
      <trkpt lat="47.09164" lon="2.22678">
        <ele>125</ele>
        <time>2018-04-17T14:42:47Z</time>
      </trkpt>
      <trkpt lat="47.09174" lon="2.22701">
        <ele>124</ele>
        <time>2018-04-17T14:42:54Z</time>
      </trkpt>
      <trkpt lat="47.09176" lon="2.22701">
        <ele>124</ele>
        <time>2018-04-17T14:42:55Z</time>
      </trkpt>
      <trkpt lat="47.09178" lon="2.22701">
        <ele>124</ele>
        <time>2018-04-17T14:42:58Z</time>
      </trkpt>
      <trkpt lat="47.09178" lon="2.22701">
        <ele>124</ele>
        <time>2018-04-17T14:43:09Z</time>
      </trkpt>
      <trkpt lat="47.09183" lon="2.22701">
        <ele>124</ele>
        <time>2018-04-17T14:43:15Z</time>
      </trkpt>
      <trkpt lat="47.09185" lon="2.22701">
        <ele>124</ele>
        <time>2018-04-17T14:43:20Z</time>
      </trkpt>
      <trkpt lat="47.09185" lon="2.22701">
        <ele>124</ele>
        <time>2018-04-17T14:43:31Z</time>
      </trkpt>
      <trkpt lat="47.09185" lon="2.22701">
        <ele>124</ele>
        <time>2018-04-17T14:43:46Z</time>
      </trkpt>
      <trkpt lat="47.09185" lon="2.22701">
        <ele>124</ele>
        <time>2018-04-17T14:43:57Z</time>
      </trkpt>
      <trkpt lat="47.09185" lon="2.22701">
        <ele>124</ele>
        <time>2018-04-17T14:44:03Z</time>
      </trkpt>
      <trkpt lat="47.09185" lon="2.22701">
        <ele>124</ele>
        <time>2018-04-17T14:44:16Z</time>
      </trkpt>
      <trkpt lat="47.09185" lon="2.22701">
        <ele>124</ele>
        <time>2018-04-17T14:44:25Z</time>
      </trkpt>
      <trkpt lat="47.09185" lon="2.22701">
        <ele>124</ele>
        <time>2018-04-17T14:44:36Z</time>
      </trkpt>
      <trkpt lat="47.09185" lon="2.22701">
        <ele>124</ele>
        <time>2018-04-17T14:44:47Z</time>
      </trkpt>
      <trkpt lat="47.09185" lon="2.22701">
        <ele>124</ele>
        <time>2018-04-17T14:44:56Z</time>
      </trkpt>
      <trkpt lat="47.09185" lon="2.22701">
        <ele>124</ele>
        <time>2018-04-17T14:44:59Z</time>
      </trkpt>
      <trkpt lat="47.09185" lon="2.22701">
        <ele>124</ele>
        <time>2018-04-17T14:45:10Z</time>
      </trkpt>
      <trkpt lat="47.09185" lon="2.22701">
        <ele>124</ele>
        <time>2018-04-17T14:45:24Z</time>
      </trkpt>
      <trkpt lat="47.09185" lon="2.22701">
        <ele>124</ele>
        <time>2018-04-17T14:45:33Z</time>
      </trkpt>
      <trkpt lat="47.09185" lon="2.22701">
        <ele>124</ele>
        <time>2018-04-17T14:45:39Z</time>
      </trkpt>
      <trkpt lat="47.09185" lon="2.22701">
        <ele>124</ele>
        <time>2018-04-17T14:45:48Z</time>
      </trkpt>
      <trkpt lat="47.09185" lon="2.22701">
        <ele>124</ele>
        <time>2018-04-17T14:45:55Z</time>
      </trkpt>
      <trkpt lat="47.09185" lon="2.22701">
        <ele>124</ele>
        <time>2018-04-17T14:45:57Z</time>
      </trkpt>
      <trkpt lat="47.09185" lon="2.22701">
        <ele>124</ele>
        <time>2018-04-17T14:46:07Z</time>
      </trkpt>
      <trkpt lat="47.09185" lon="2.227">
        <ele>124</ele>
        <time>2018-04-17T14:46:18Z</time>
      </trkpt>
      <trkpt lat="47.09192" lon="2.22698">
        <ele>124</ele>
        <time>2018-04-17T14:46:22Z</time>
      </trkpt>
      <trkpt lat="47.09193" lon="2.22697">
        <ele>124</ele>
        <time>2018-04-17T14:46:26Z</time>
      </trkpt>
      <trkpt lat="47.09194" lon="2.22698">
        <ele>124</ele>
        <time>2018-04-17T14:46:33Z</time>
      </trkpt>
      <trkpt lat="47.09197" lon="2.22698">
        <ele>124</ele>
        <time>2018-04-17T14:46:35Z</time>
      </trkpt>
      <trkpt lat="47.09206" lon="2.22698">
        <ele>124</ele>
        <time>2018-04-17T14:46:38Z</time>
      </trkpt>
      <trkpt lat="47.09209" lon="2.22697">
        <ele>124</ele>
        <time>2018-04-17T14:46:39Z</time>
      </trkpt>
      <trkpt lat="47.09236" lon="2.22692">
        <ele>124</ele>
        <time>2018-04-17T14:46:46Z</time>
      </trkpt>
      <trkpt lat="47.09276" lon="2.2268">
        <ele>125</ele>
        <time>2018-04-17T14:46:56Z</time>
      </trkpt>
      <trkpt lat="47.09289" lon="2.22677">
        <ele>125</ele>
        <time>2018-04-17T14:46:59Z</time>
      </trkpt>
      <trkpt lat="47.0931" lon="2.22673">
        <ele>125</ele>
        <time>2018-04-17T14:47:04Z</time>
      </trkpt>
      <trkpt lat="47.09343" lon="2.22666">
        <ele>125</ele>
        <time>2018-04-17T14:47:12Z</time>
      </trkpt>
      <trkpt lat="47.09372" lon="2.2266">
        <ele>126</ele>
        <time>2018-04-17T14:47:19Z</time>
      </trkpt>
      <trkpt lat="47.09392" lon="2.22656">
        <ele>126</ele>
        <time>2018-04-17T14:47:24Z</time>
      </trkpt>
      <trkpt lat="47.09405" lon="2.22654">
        <ele>126</ele>
        <time>2018-04-17T14:47:27Z</time>
      </trkpt>
      <trkpt lat="47.09409" lon="2.22652">
        <ele>126</ele>
        <time>2018-04-17T14:47:28Z</time>
      </trkpt>
      <trkpt lat="47.0943" lon="2.22648">
        <ele>126</ele>
        <time>2018-04-17T14:47:33Z</time>
      </trkpt>
      <trkpt lat="47.09469" lon="2.22639">
        <ele>126</ele>
        <time>2018-04-17T14:47:41Z</time>
      </trkpt>
      <trkpt lat="47.09502" lon="2.22632">
        <ele>125</ele>
        <time>2018-04-17T14:47:47Z</time>
      </trkpt>
      <trkpt lat="47.09514" lon="2.2263">
        <ele>125</ele>
        <time>2018-04-17T14:47:49Z</time>
      </trkpt>
      <trkpt lat="47.09564" lon="2.22619">
        <ele>125</ele>
        <time>2018-04-17T14:47:58Z</time>
      </trkpt>
      <trkpt lat="47.09596" lon="2.22612">
        <ele>126</ele>
        <time>2018-04-17T14:48:05Z</time>
      </trkpt>
      <trkpt lat="47.096" lon="2.22611">
        <ele>126</ele>
        <time>2018-04-17T14:48:06Z</time>
      </trkpt>
      <trkpt lat="47.09637" lon="2.22603">
        <ele>126</ele>
        <time>2018-04-17T14:48:15Z</time>
      </trkpt>
      <trkpt lat="47.09665" lon="2.22598">
        <ele>127</ele>
        <time>2018-04-17T14:48:22Z</time>
      </trkpt>
      <trkpt lat="47.09676" lon="2.22596">
        <ele>127</ele>
        <time>2018-04-17T14:48:25Z</time>
      </trkpt>
      <trkpt lat="47.09685" lon="2.22595">
        <ele>127</ele>
        <time>2018-04-17T14:48:29Z</time>
      </trkpt>
      <trkpt lat="47.09686" lon="2.22595">
        <ele>127</ele>
        <time>2018-04-17T14:48:30Z</time>
      </trkpt>
      <trkpt lat="47.09692" lon="2.22602">
        <ele>127</ele>
        <time>2018-04-17T14:48:35Z</time>
      </trkpt>
      <trkpt lat="47.09704" lon="2.22619">
        <ele>127</ele>
        <time>2018-04-17T14:48:41Z</time>
      </trkpt>
      <trkpt lat="47.0972" lon="2.22638">
        <ele>128</ele>
        <time>2018-04-17T14:48:47Z</time>
      </trkpt>
      <trkpt lat="47.09726" lon="2.22645">
        <ele>128</ele>
        <time>2018-04-17T14:48:49Z</time>
      </trkpt>
      <trkpt lat="47.09745" lon="2.22669">
        <ele>128</ele>
        <time>2018-04-17T14:48:55Z</time>
      </trkpt>
      <trkpt lat="47.09775" lon="2.22707">
        <ele>128</ele>
        <time>2018-04-17T14:49:04Z</time>
      </trkpt>
      <trkpt lat="47.09807" lon="2.22747">
        <ele>128</ele>
        <time>2018-04-17T14:49:13Z</time>
      </trkpt>
      <trkpt lat="47.09844" lon="2.22795">
        <ele>128</ele>
        <time>2018-04-17T14:49:23Z</time>
      </trkpt>
      <trkpt lat="47.09874" lon="2.22835">
        <ele>128</ele>
        <time>2018-04-17T14:49:32Z</time>
      </trkpt>
      <trkpt lat="47.09877" lon="2.22839">
        <ele>128</ele>
        <time>2018-04-17T14:49:33Z</time>
      </trkpt>
      <trkpt lat="47.09895" lon="2.22863">
        <ele>128</ele>
        <time>2018-04-17T14:49:40Z</time>
      </trkpt>
      <trkpt lat="47.09907" lon="2.2288">
        <ele>128</ele>
        <time>2018-04-17T14:49:44Z</time>
      </trkpt>
      <trkpt lat="47.09922" lon="2.22899">
        <ele>128</ele>
        <time>2018-04-17T14:49:49Z</time>
      </trkpt>
      <trkpt lat="47.09936" lon="2.2292">
        <ele>128</ele>
        <time>2018-04-17T14:49:54Z</time>
      </trkpt>
      <trkpt lat="47.09951" lon="2.2294">
        <ele>127</ele>
        <time>2018-04-17T14:50:00Z</time>
      </trkpt>
      <trkpt lat="47.09953" lon="2.22943">
        <ele>127</ele>
        <time>2018-04-17T14:50:01Z</time>
      </trkpt>
      <trkpt lat="47.09971" lon="2.22968">
        <ele>127</ele>
        <time>2018-04-17T14:50:09Z</time>
      </trkpt>
      <trkpt lat="47.09977" lon="2.22976">
        <ele>127</ele>
        <time>2018-04-17T14:50:11Z</time>
      </trkpt>
      <trkpt lat="47.09992" lon="2.22997">
        <ele>127</ele>
        <time>2018-04-17T14:50:16Z</time>
      </trkpt>
      <trkpt lat="47.09995" lon="2.23001">
        <ele>127</ele>
        <time>2018-04-17T14:50:17Z</time>
      </trkpt>
      <trkpt lat="47.10002" lon="2.23011">
        <ele>127</ele>
        <time>2018-04-17T14:50:19Z</time>
      </trkpt>
      <trkpt lat="47.10008" lon="2.23021">
        <ele>127</ele>
        <time>2018-04-17T14:50:21Z</time>
      </trkpt>
      <trkpt lat="47.10012" lon="2.23026">
        <ele>127</ele>
        <time>2018-04-17T14:50:22Z</time>
      </trkpt>
      <trkpt lat="47.1002" lon="2.23036">
        <ele>127</ele>
        <time>2018-04-17T14:50:24Z</time>
      </trkpt>
      <trkpt lat="47.10028" lon="2.23047">
        <ele>127</ele>
        <time>2018-04-17T14:50:26Z</time>
      </trkpt>
      <trkpt lat="47.10032" lon="2.23053">
        <ele>127</ele>
        <time>2018-04-17T14:50:27Z</time>
      </trkpt>
      <trkpt lat="47.10048" lon="2.23075">
        <ele>127</ele>
        <time>2018-04-17T14:50:31Z</time>
      </trkpt>
      <trkpt lat="47.10055" lon="2.23087">
        <ele>127</ele>
        <time>2018-04-17T14:50:33Z</time>
      </trkpt>
      <trkpt lat="47.10063" lon="2.23097">
        <ele>127</ele>
        <time>2018-04-17T14:50:35Z</time>
      </trkpt>
      <trkpt lat="47.10086" lon="2.23128">
        <ele>127</ele>
        <time>2018-04-17T14:50:42Z</time>
      </trkpt>
      <trkpt lat="47.10089" lon="2.23132">
        <ele>127</ele>
        <time>2018-04-17T14:50:43Z</time>
      </trkpt>
      <trkpt lat="47.10113" lon="2.23162">
        <ele>127</ele>
        <time>2018-04-17T14:50:50Z</time>
      </trkpt>
      <trkpt lat="47.10139" lon="2.23179">
        <ele>127</ele>
        <time>2018-04-17T14:50:56Z</time>
      </trkpt>
      <trkpt lat="47.10144" lon="2.2318">
        <ele>127</ele>
        <time>2018-04-17T14:50:57Z</time>
      </trkpt>
      <trkpt lat="47.10153" lon="2.23184">
        <ele>127</ele>
        <time>2018-04-17T14:50:59Z</time>
      </trkpt>
      <trkpt lat="47.10157" lon="2.23187">
        <ele>127</ele>
        <time>2018-04-17T14:51:00Z</time>
      </trkpt>
      <trkpt lat="47.10189" lon="2.23201">
        <ele>127</ele>
        <time>2018-04-17T14:51:07Z</time>
      </trkpt>
      <trkpt lat="47.10193" lon="2.23202">
        <ele>127</ele>
        <time>2018-04-17T14:51:08Z</time>
      </trkpt>
      <trkpt lat="47.10212" lon="2.23211">
        <ele>127</ele>
        <time>2018-04-17T14:51:12Z</time>
      </trkpt>
      <trkpt lat="47.1022" lon="2.23214">
        <ele>127</ele>
        <time>2018-04-17T14:51:14Z</time>
      </trkpt>
      <trkpt lat="47.10245" lon="2.23227">
        <ele>128</ele>
        <time>2018-04-17T14:51:21Z</time>
      </trkpt>
      <trkpt lat="47.10265" lon="2.2324">
        <ele>128</ele>
        <time>2018-04-17T14:51:28Z</time>
      </trkpt>
      <trkpt lat="47.1028" lon="2.23251">
        <ele>128</ele>
        <time>2018-04-17T14:51:32Z</time>
      </trkpt>
      <trkpt lat="47.10287" lon="2.23257">
        <ele>128</ele>
        <time>2018-04-17T14:51:34Z</time>
      </trkpt>
      <trkpt lat="47.10291" lon="2.2326">
        <ele>128</ele>
        <time>2018-04-17T14:51:35Z</time>
      </trkpt>
      <trkpt lat="47.10316" lon="2.23279">
        <ele>128</ele>
        <time>2018-04-17T14:51:41Z</time>
      </trkpt>
      <trkpt lat="47.10359" lon="2.23311">
        <ele>130</ele>
        <time>2018-04-17T14:51:51Z</time>
      </trkpt>
      <trkpt lat="47.10366" lon="2.23318">
        <ele>130</ele>
        <time>2018-04-17T14:51:53Z</time>
      </trkpt>
      <trkpt lat="47.10376" lon="2.23333">
        <ele>131</ele>
        <time>2018-04-17T14:51:56Z</time>
      </trkpt>
      <trkpt lat="47.10379" lon="2.23339">
        <ele>132</ele>
        <time>2018-04-17T14:51:57Z</time>
      </trkpt>
      <trkpt lat="47.10398" lon="2.23382">
        <ele>132</ele>
        <time>2018-04-17T14:52:04Z</time>
      </trkpt>
      <trkpt lat="47.10409" lon="2.23404">
        <ele>133</ele>
        <time>2018-04-17T14:52:08Z</time>
      </trkpt>
      <trkpt lat="47.10417" lon="2.23421">
        <ele>133</ele>
        <time>2018-04-17T14:52:11Z</time>
      </trkpt>
      <trkpt lat="47.10443" lon="2.23464">
        <ele>131</ele>
        <time>2018-04-17T14:52:19Z</time>
      </trkpt>
      <trkpt lat="47.10472" lon="2.23496">
        <ele>129</ele>
        <time>2018-04-17T14:52:26Z</time>
      </trkpt>
      <trkpt lat="47.10476" lon="2.235">
        <ele>129</ele>
        <time>2018-04-17T14:52:27Z</time>
      </trkpt>
      <trkpt lat="47.10495" lon="2.23516">
        <ele>127</ele>
        <time>2018-04-17T14:52:31Z</time>
      </trkpt>
      <trkpt lat="47.10509" lon="2.23528">
        <ele>124</ele>
        <time>2018-04-17T14:52:34Z</time>
      </trkpt>
      <trkpt lat="47.10519" lon="2.23536">
        <ele>124</ele>
        <time>2018-04-17T14:52:36Z</time>
      </trkpt>
      <trkpt lat="47.10553" lon="2.23563">
        <ele>123</ele>
        <time>2018-04-17T14:52:43Z</time>
      </trkpt>
      <trkpt lat="47.10558" lon="2.23567">
        <ele>123</ele>
        <time>2018-04-17T14:52:44Z</time>
      </trkpt>
      <trkpt lat="47.10597" lon="2.23599">
        <ele>122</ele>
        <time>2018-04-17T14:52:52Z</time>
      </trkpt>
      <trkpt lat="47.10642" lon="2.23637">
        <ele>122</ele>
        <time>2018-04-17T14:53:01Z</time>
      </trkpt>
      <trkpt lat="47.10684" lon="2.23672">
        <ele>122</ele>
        <time>2018-04-17T14:53:09Z</time>
      </trkpt>
      <trkpt lat="47.10721" lon="2.23701">
        <ele>122</ele>
        <time>2018-04-17T14:53:16Z</time>
      </trkpt>
      <trkpt lat="47.10732" lon="2.2371">
        <ele>122</ele>
        <time>2018-04-17T14:53:18Z</time>
      </trkpt>
      <trkpt lat="47.10773" lon="2.23744">
        <ele>122</ele>
        <time>2018-04-17T14:53:26Z</time>
      </trkpt>
      <trkpt lat="47.10818" lon="2.23781">
        <ele>123</ele>
        <time>2018-04-17T14:53:35Z</time>
      </trkpt>
      <trkpt lat="47.10855" lon="2.23812">
        <ele>122</ele>
        <time>2018-04-17T14:53:43Z</time>
      </trkpt>
      <trkpt lat="47.10894" lon="2.23846">
        <ele>122</ele>
        <time>2018-04-17T14:53:51Z</time>
      </trkpt>
      <trkpt lat="47.10904" lon="2.23855">
        <ele>122</ele>
        <time>2018-04-17T14:53:53Z</time>
      </trkpt>
      <trkpt lat="47.10918" lon="2.23868">
        <ele>122</ele>
        <time>2018-04-17T14:53:56Z</time>
      </trkpt>
      <trkpt lat="47.10931" lon="2.23879">
        <ele>122</ele>
        <time>2018-04-17T14:53:59Z</time>
      </trkpt>
      <trkpt lat="47.10963" lon="2.23906">
        <ele>122</ele>
        <time>2018-04-17T14:54:07Z</time>
      </trkpt>
      <trkpt lat="47.10987" lon="2.23925">
        <ele>123</ele>
        <time>2018-04-17T14:54:13Z</time>
      </trkpt>
      <trkpt lat="47.11005" lon="2.23943">
        <ele>124</ele>
        <time>2018-04-17T14:54:18Z</time>
      </trkpt>
      <trkpt lat="47.11012" lon="2.23951">
        <ele>124</ele>
        <time>2018-04-17T14:54:20Z</time>
      </trkpt>
      <trkpt lat="47.11034" lon="2.23979">
        <ele>123</ele>
        <time>2018-04-17T14:54:26Z</time>
      </trkpt>
      <trkpt lat="47.11041" lon="2.23989">
        <ele>123</ele>
        <time>2018-04-17T14:54:28Z</time>
      </trkpt>
      <trkpt lat="47.1107" lon="2.2403">
        <ele>123</ele>
        <time>2018-04-17T14:54:37Z</time>
      </trkpt>
      <trkpt lat="47.11089" lon="2.24059">
        <ele>123</ele>
        <time>2018-04-17T14:54:43Z</time>
      </trkpt>
      <trkpt lat="47.11098" lon="2.24073">
        <ele>123</ele>
        <time>2018-04-17T14:54:46Z</time>
      </trkpt>
      <trkpt lat="47.11113" lon="2.24094">
        <ele>123</ele>
        <time>2018-04-17T14:54:51Z</time>
      </trkpt>
      <trkpt lat="47.11138" lon="2.2413">
        <ele>123</ele>
        <time>2018-04-17T14:54:59Z</time>
      </trkpt>
      <trkpt lat="47.11141" lon="2.24134">
        <ele>123</ele>
        <time>2018-04-17T14:55:00Z</time>
      </trkpt>
      <trkpt lat="47.11155" lon="2.24152">
        <ele>123</ele>
        <time>2018-04-17T14:55:05Z</time>
      </trkpt>
      <trkpt lat="47.11164" lon="2.24169">
        <ele>122</ele>
        <time>2018-04-17T14:55:10Z</time>
      </trkpt>
      <trkpt lat="47.11171" lon="2.2418">
        <ele>122</ele>
        <time>2018-04-17T14:55:16Z</time>
      </trkpt>
      <trkpt lat="47.11172" lon="2.24181">
        <ele>122</ele>
        <time>2018-04-17T14:55:27Z</time>
      </trkpt>
      <trkpt lat="47.11172" lon="2.24181">
        <ele>122</ele>
        <time>2018-04-17T14:55:41Z</time>
      </trkpt>
      <trkpt lat="47.11172" lon="2.24181">
        <ele>122</ele>
        <time>2018-04-17T14:55:54Z</time>
      </trkpt>
      <trkpt lat="47.11172" lon="2.24181">
        <ele>122</ele>
        <time>2018-04-17T14:56:10Z</time>
      </trkpt>
      <trkpt lat="47.11172" lon="2.24181">
        <ele>122</ele>
        <time>2018-04-17T14:56:19Z</time>
      </trkpt>
      <trkpt lat="47.11172" lon="2.24181">
        <ele>122</ele>
        <time>2018-04-17T14:56:35Z</time>
      </trkpt>
      <trkpt lat="47.11176" lon="2.24182">
        <ele>122</ele>
        <time>2018-04-17T14:56:43Z</time>
      </trkpt>
      <trkpt lat="47.11178" lon="2.2418">
        <ele>122</ele>
        <time>2018-04-17T14:56:44Z</time>
      </trkpt>
      <trkpt lat="47.11184" lon="2.24173">
        <ele>122</ele>
        <time>2018-04-17T14:56:47Z</time>
      </trkpt>
      <trkpt lat="47.11194" lon="2.24155">
        <ele>122</ele>
        <time>2018-04-17T14:56:52Z</time>
      </trkpt>
      <trkpt lat="47.11212" lon="2.24128">
        <ele>122</ele>
        <time>2018-04-17T14:57:00Z</time>
      </trkpt>
      <trkpt lat="47.11228" lon="2.2411">
        <ele>122</ele>
        <time>2018-04-17T14:57:07Z</time>
      </trkpt>
      <trkpt lat="47.11249" lon="2.24101">
        <ele>123</ele>
        <time>2018-04-17T14:57:14Z</time>
      </trkpt>
      <trkpt lat="47.11272" lon="2.24096">
        <ele>122</ele>
        <time>2018-04-17T14:57:22Z</time>
      </trkpt>
      <trkpt lat="47.1129" lon="2.24094">
        <ele>122</ele>
        <time>2018-04-17T14:57:28Z</time>
      </trkpt>
      <trkpt lat="47.11313" lon="2.24089">
        <ele>122</ele>
        <time>2018-04-17T14:57:35Z</time>
      </trkpt>
      <trkpt lat="47.11331" lon="2.24087">
        <ele>122</ele>
        <time>2018-04-17T14:57:41Z</time>
      </trkpt>
      <trkpt lat="47.11344" lon="2.24084">
        <ele>122</ele>
        <time>2018-04-17T14:57:46Z</time>
      </trkpt>
      <trkpt lat="47.11364" lon="2.24072">
        <ele>121</ele>
        <time>2018-04-17T14:57:52Z</time>
      </trkpt>
      <trkpt lat="47.11393" lon="2.24046">
        <ele>121</ele>
        <time>2018-04-17T14:57:59Z</time>
      </trkpt>
      <trkpt lat="47.11409" lon="2.24027">
        <ele>121</ele>
        <time>2018-04-17T14:58:03Z</time>
      </trkpt>
      <trkpt lat="47.11428" lon="2.24006">
        <ele>120</ele>
        <time>2018-04-17T14:58:07Z</time>
      </trkpt>
      <trkpt lat="47.11432" lon="2.24001">
        <ele>120</ele>
        <time>2018-04-17T14:58:08Z</time>
      </trkpt>
      <trkpt lat="47.11473" lon="2.23956">
        <ele>120</ele>
        <time>2018-04-17T14:58:17Z</time>
      </trkpt>
      <trkpt lat="47.11499" lon="2.23925">
        <ele>120</ele>
        <time>2018-04-17T14:58:23Z</time>
      </trkpt>
      <trkpt lat="47.11512" lon="2.23911">
        <ele>120</ele>
        <time>2018-04-17T14:58:26Z</time>
      </trkpt>
      <trkpt lat="47.11546" lon="2.23873">
        <ele>119</ele>
        <time>2018-04-17T14:58:34Z</time>
      </trkpt>
      <trkpt lat="47.11585" lon="2.23834">
        <ele>119</ele>
        <time>2018-04-17T14:58:43Z</time>
      </trkpt>
      <trkpt lat="47.11628" lon="2.23792">
        <ele>119</ele>
        <time>2018-04-17T14:58:53Z</time>
      </trkpt>
      <trkpt lat="47.11665" lon="2.23758">
        <ele>118</ele>
        <time>2018-04-17T14:59:01Z</time>
      </trkpt>
      <trkpt lat="47.11698" lon="2.23726">
        <ele>118</ele>
        <time>2018-04-17T14:59:08Z</time>
      </trkpt>
      <trkpt lat="47.11713" lon="2.23711">
        <ele>118</ele>
        <time>2018-04-17T14:59:11Z</time>
      </trkpt>
      <trkpt lat="47.11728" lon="2.23698">
        <ele>118</ele>
        <time>2018-04-17T14:59:14Z</time>
      </trkpt>
      <trkpt lat="47.11745" lon="2.2368">
        <ele>117</ele>
        <time>2018-04-17T14:59:18Z</time>
      </trkpt>
      <trkpt lat="47.1175" lon="2.23676">
        <ele>117</ele>
        <time>2018-04-17T14:59:19Z</time>
      </trkpt>
      <trkpt lat="47.11779" lon="2.23648">
        <ele>117</ele>
        <time>2018-04-17T14:59:26Z</time>
      </trkpt>
      <trkpt lat="47.11817" lon="2.23612">
        <ele>117</ele>
        <time>2018-04-17T14:59:35Z</time>
      </trkpt>
      <trkpt lat="47.11842" lon="2.23589">
        <ele>117</ele>
        <time>2018-04-17T14:59:42Z</time>
      </trkpt>
      <trkpt lat="47.11857" lon="2.23581">
        <ele>117</ele>
        <time>2018-04-17T14:59:47Z</time>
      </trkpt>
      <trkpt lat="47.11862" lon="2.23583">
        <ele>117</ele>
        <time>2018-04-17T14:59:51Z</time>
      </trkpt>
      <trkpt lat="47.11864" lon="2.23584">
        <ele>117</ele>
        <time>2018-04-17T14:59:57Z</time>
      </trkpt>
      <trkpt lat="47.11863" lon="2.23584">
        <ele>117</ele>
        <time>2018-04-17T15:00:05Z</time>
      </trkpt>
      <trkpt lat="47.11863" lon="2.23584">
        <ele>117</ele>
        <time>2018-04-17T15:00:23Z</time>
      </trkpt>
      <trkpt lat="47.11863" lon="2.23584">
        <ele>117</ele>
        <time>2018-04-17T15:00:35Z</time>
      </trkpt>
      <trkpt lat="47.11863" lon="2.23584">
        <ele>117</ele>
        <time>2018-04-17T15:00:47Z</time>
      </trkpt>
      <trkpt lat="47.11863" lon="2.23584">
        <ele>117</ele>
        <time>2018-04-17T15:00:56Z</time>
      </trkpt>
      <trkpt lat="47.11863" lon="2.23584">
        <ele>117</ele>
        <time>2018-04-17T15:01:14Z</time>
      </trkpt>
      <trkpt lat="47.11863" lon="2.23584">
        <ele>117</ele>
        <time>2018-04-17T15:01:23Z</time>
      </trkpt>
      <trkpt lat="47.11863" lon="2.23584">
        <ele>117</ele>
        <time>2018-04-17T15:01:32Z</time>
      </trkpt>
      <trkpt lat="47.11863" lon="2.23584">
        <ele>117</ele>
        <time>2018-04-17T15:01:44Z</time>
      </trkpt>
      <trkpt lat="47.11863" lon="2.23584">
        <ele>117</ele>
        <time>2018-04-17T15:01:58Z</time>
      </trkpt>
      <trkpt lat="47.11863" lon="2.23584">
        <ele>117</ele>
        <time>2018-04-17T15:02:14Z</time>
      </trkpt>
      <trkpt lat="47.11864" lon="2.23585">
        <ele>117</ele>
        <time>2018-04-17T15:02:29Z</time>
      </trkpt>
      <trkpt lat="47.11864" lon="2.23585">
        <ele>117</ele>
        <time>2018-04-17T15:02:30Z</time>
      </trkpt>
      <trkpt lat="47.11869" lon="2.23594">
        <ele>118</ele>
        <time>2018-04-17T15:02:34Z</time>
      </trkpt>
      <trkpt lat="47.11878" lon="2.23609">
        <ele>118</ele>
        <time>2018-04-17T15:02:39Z</time>
      </trkpt>
      <trkpt lat="47.11882" lon="2.23615">
        <ele>118</ele>
        <time>2018-04-17T15:02:41Z</time>
      </trkpt>
      <trkpt lat="47.11902" lon="2.23644">
        <ele>118</ele>
        <time>2018-04-17T15:02:49Z</time>
      </trkpt>
      <trkpt lat="47.11928" lon="2.23681">
        <ele>118</ele>
        <time>2018-04-17T15:02:58Z</time>
      </trkpt>
      <trkpt lat="47.11958" lon="2.23724">
        <ele>119</ele>
        <time>2018-04-17T15:03:08Z</time>
      </trkpt>
      <trkpt lat="47.1198" lon="2.23754">
        <ele>120</ele>
        <time>2018-04-17T15:03:15Z</time>
      </trkpt>
      <trkpt lat="47.12003" lon="2.23787">
        <ele>121</ele>
        <time>2018-04-17T15:03:22Z</time>
      </trkpt>
      <trkpt lat="47.12006" lon="2.23791">
        <ele>121</ele>
        <time>2018-04-17T15:03:23Z</time>
      </trkpt>
      <trkpt lat="47.12016" lon="2.23806">
        <ele>121</ele>
        <time>2018-04-17T15:03:26Z</time>
      </trkpt>
      <trkpt lat="47.12029" lon="2.23824">
        <ele>121</ele>
        <time>2018-04-17T15:03:30Z</time>
      </trkpt>
      <trkpt lat="47.12049" lon="2.23853">
        <ele>121</ele>
        <time>2018-04-17T15:03:37Z</time>
      </trkpt>
      <trkpt lat="47.1206" lon="2.23874">
        <ele>120</ele>
        <time>2018-04-17T15:03:41Z</time>
      </trkpt>
      <trkpt lat="47.12064" lon="2.23886">
        <ele>120</ele>
        <time>2018-04-17T15:03:43Z</time>
      </trkpt>
      <trkpt lat="47.12066" lon="2.23893">
        <ele>120</ele>
        <time>2018-04-17T15:03:44Z</time>
      </trkpt>
      <trkpt lat="47.12071" lon="2.23913">
        <ele>120</ele>
        <time>2018-04-17T15:03:47Z</time>
      </trkpt>
      <trkpt lat="47.12077" lon="2.23935">
        <ele>118</ele>
        <time>2018-04-17T15:03:50Z</time>
      </trkpt>
      <trkpt lat="47.12083" lon="2.2396">
        <ele>117</ele>
        <time>2018-04-17T15:03:53Z</time>
      </trkpt>
      <trkpt lat="47.1209" lon="2.23985">
        <ele>117</ele>
        <time>2018-04-17T15:03:56Z</time>
      </trkpt>
      <trkpt lat="47.12095" lon="2.24">
        <ele>116</ele>
        <time>2018-04-17T15:03:58Z</time>
      </trkpt>
      <trkpt lat="47.12103" lon="2.24015">
        <ele>115</ele>
        <time>2018-04-17T15:04:01Z</time>
      </trkpt>
      <trkpt lat="47.12104" lon="2.24017">
        <ele>115</ele>
        <time>2018-04-17T15:04:02Z</time>
      </trkpt>
      <trkpt lat="47.12106" lon="2.2402">
        <ele>115</ele>
        <time>2018-04-17T15:04:04Z</time>
      </trkpt>
      <trkpt lat="47.1211" lon="2.24023">
        <ele>115</ele>
        <time>2018-04-17T15:04:07Z</time>
      </trkpt>
      <trkpt lat="47.12113" lon="2.24022">
        <ele>115</ele>
        <time>2018-04-17T15:04:09Z</time>
      </trkpt>
      <trkpt lat="47.12119" lon="2.24016">
        <ele>115</ele>
        <time>2018-04-17T15:04:15Z</time>
      </trkpt>
      <trkpt lat="47.12122" lon="2.24014">
        <ele>115</ele>
        <time>2018-04-17T15:04:17Z</time>
      </trkpt>
      <trkpt lat="47.12128" lon="2.24006">
        <ele>115</ele>
        <time>2018-04-17T15:04:21Z</time>
      </trkpt>
      <trkpt lat="47.12144" lon="2.23987">
        <ele>117</ele>
        <time>2018-04-17T15:04:28Z</time>
      </trkpt>
      <trkpt lat="47.12161" lon="2.23968">
        <ele>117</ele>
        <time>2018-04-17T15:04:34Z</time>
      </trkpt>
      <trkpt lat="47.12176" lon="2.23952">
        <ele>117</ele>
        <time>2018-04-17T15:04:39Z</time>
      </trkpt>
      <trkpt lat="47.12199" lon="2.23928">
        <ele>117</ele>
        <time>2018-04-17T15:04:47Z</time>
      </trkpt>
      <trkpt lat="47.12224" lon="2.23896">
        <ele>120</ele>
        <time>2018-04-17T15:04:56Z</time>
      </trkpt>
      <trkpt lat="47.12247" lon="2.23862">
        <ele>121</ele>
        <time>2018-04-17T15:05:04Z</time>
      </trkpt>
      <trkpt lat="47.1227" lon="2.23819">
        <ele>121</ele>
        <time>2018-04-17T15:05:13Z</time>
      </trkpt>
      <trkpt lat="47.12295" lon="2.23777">
        <ele>120</ele>
        <time>2018-04-17T15:05:22Z</time>
      </trkpt>
      <trkpt lat="47.12312" lon="2.23742">
        <ele>119</ele>
        <time>2018-04-17T15:05:29Z</time>
      </trkpt>
      <trkpt lat="47.12325" lon="2.23704">
        <ele>120</ele>
        <time>2018-04-17T15:05:36Z</time>
      </trkpt>
      <trkpt lat="47.12339" lon="2.23657">
        <ele>119</ele>
        <time>2018-04-17T15:05:44Z</time>
      </trkpt>
      <trkpt lat="47.12348" lon="2.23625">
        <ele>119</ele>
        <time>2018-04-17T15:05:51Z</time>
      </trkpt>
      <trkpt lat="47.1236" lon="2.23604">
        <ele>118</ele>
        <time>2018-04-17T15:05:57Z</time>
      </trkpt>
      <trkpt lat="47.12368" lon="2.23585">
        <ele>118</ele>
        <time>2018-04-17T15:06:04Z</time>
      </trkpt>
      <trkpt lat="47.12376" lon="2.23573">
        <ele>118</ele>
        <time>2018-04-17T15:06:10Z</time>
      </trkpt>
      <trkpt lat="47.12375" lon="2.23573">
        <ele>118</ele>
        <time>2018-04-17T15:06:11Z</time>
      </trkpt>
      <trkpt lat="47.12373" lon="2.2357">
        <ele>118</ele>
        <time>2018-04-17T15:06:13Z</time>
      </trkpt>
      <trkpt lat="47.12375" lon="2.23564">
        <ele>118</ele>
        <time>2018-04-17T15:06:16Z</time>
      </trkpt>
      <trkpt lat="47.12377" lon="2.2356">
        <ele>118</ele>
        <time>2018-04-17T15:06:17Z</time>
      </trkpt>
      <trkpt lat="47.12388" lon="2.23537">
        <ele>117</ele>
        <time>2018-04-17T15:06:22Z</time>
      </trkpt>
      <trkpt lat="47.12405" lon="2.235">
        <ele>116</ele>
        <time>2018-04-17T15:06:30Z</time>
      </trkpt>
      <trkpt lat="47.12419" lon="2.23469">
        <ele>115</ele>
        <time>2018-04-17T15:06:37Z</time>
      </trkpt>
      <trkpt lat="47.12436" lon="2.23427">
        <ele>115</ele>
        <time>2018-04-17T15:06:46Z</time>
      </trkpt>
      <trkpt lat="47.12444" lon="2.23406">
        <ele>115</ele>
        <time>2018-04-17T15:06:53Z</time>
      </trkpt>
      <trkpt lat="47.12446" lon="2.23402">
        <ele>115</ele>
        <time>2018-04-17T15:06:58Z</time>
      </trkpt>
      <trkpt lat="47.1245" lon="2.23392">
        <ele>115</ele>
        <time>2018-04-17T15:07:05Z</time>
      </trkpt>
      <trkpt lat="47.12452" lon="2.23389">
        <ele>115</ele>
        <time>2018-04-17T15:07:09Z</time>
      </trkpt>
      <trkpt lat="47.12452" lon="2.23388">
        <ele>115</ele>
        <time>2018-04-17T15:07:10Z</time>
      </trkpt>
      <trkpt lat="47.12457" lon="2.23378">
        <ele>115</ele>
        <time>2018-04-17T15:07:15Z</time>
      </trkpt>
      <trkpt lat="47.12467" lon="2.23352">
        <ele>115</ele>
        <time>2018-04-17T15:07:22Z</time>
      </trkpt>
      <trkpt lat="47.12481" lon="2.23323">
        <ele>116</ele>
        <time>2018-04-17T15:07:29Z</time>
      </trkpt>
      <trkpt lat="47.12497" lon="2.23288">
        <ele>116</ele>
        <time>2018-04-17T15:07:36Z</time>
      </trkpt>
      <trkpt lat="47.12502" lon="2.23277">
        <ele>115</ele>
        <time>2018-04-17T15:07:38Z</time>
      </trkpt>
      <trkpt lat="47.12514" lon="2.23252">
        <ele>115</ele>
        <time>2018-04-17T15:07:43Z</time>
      </trkpt>
      <trkpt lat="47.12532" lon="2.23211">
        <ele>114</ele>
        <time>2018-04-17T15:07:51Z</time>
      </trkpt>
      <trkpt lat="47.12542" lon="2.23185">
        <ele>113</ele>
        <time>2018-04-17T15:07:56Z</time>
      </trkpt>
      <trkpt lat="47.12547" lon="2.23175">
        <ele>113</ele>
        <time>2018-04-17T15:07:58Z</time>
      </trkpt>
      <trkpt lat="47.12563" lon="2.23138">
        <ele>114</ele>
        <time>2018-04-17T15:08:05Z</time>
      </trkpt>
      <trkpt lat="47.12589" lon="2.2308">
        <ele>116</ele>
        <time>2018-04-17T15:08:16Z</time>
      </trkpt>
      <trkpt lat="47.12608" lon="2.23036">
        <ele>114</ele>
        <time>2018-04-17T15:08:24Z</time>
      </trkpt>
      <trkpt lat="47.12631" lon="2.22985">
        <ele>114</ele>
        <time>2018-04-17T15:08:33Z</time>
      </trkpt>
      <trkpt lat="47.12641" lon="2.22962">
        <ele>115</ele>
        <time>2018-04-17T15:08:37Z</time>
      </trkpt>
      <trkpt lat="47.12646" lon="2.22951">
        <ele>115</ele>
        <time>2018-04-17T15:08:39Z</time>
      </trkpt>
      <trkpt lat="47.12649" lon="2.22945">
        <ele>115</ele>
        <time>2018-04-17T15:08:40Z</time>
      </trkpt>
      <trkpt lat="47.12676" lon="2.22888">
        <ele>116</ele>
        <time>2018-04-17T15:08:50Z</time>
      </trkpt>
      <trkpt lat="47.12699" lon="2.22837">
        <ele>117</ele>
        <time>2018-04-17T15:08:59Z</time>
      </trkpt>
      <trkpt lat="47.12717" lon="2.22797">
        <ele>117</ele>
        <time>2018-04-17T15:09:06Z</time>
      </trkpt>
      <trkpt lat="47.12739" lon="2.22747">
        <ele>118</ele>
        <time>2018-04-17T15:09:14Z</time>
      </trkpt>
      <trkpt lat="47.1276" lon="2.22697">
        <ele>117</ele>
        <time>2018-04-17T15:09:22Z</time>
      </trkpt>
      <trkpt lat="47.12777" lon="2.22659">
        <ele>116</ele>
        <time>2018-04-17T15:09:28Z</time>
      </trkpt>
      <trkpt lat="47.12783" lon="2.22646">
        <ele>116</ele>
        <time>2018-04-17T15:09:30Z</time>
      </trkpt>
      <trkpt lat="47.12804" lon="2.22598">
        <ele>116</ele>
        <time>2018-04-17T15:09:38Z</time>
      </trkpt>
      <trkpt lat="47.12828" lon="2.22545">
        <ele>116</ele>
        <time>2018-04-17T15:09:47Z</time>
      </trkpt>
      <trkpt lat="47.12844" lon="2.22509">
        <ele>115</ele>
        <time>2018-04-17T15:09:53Z</time>
      </trkpt>
      <trkpt lat="47.12866" lon="2.22459">
        <ele>115</ele>
        <time>2018-04-17T15:10:01Z</time>
      </trkpt>
      <trkpt lat="47.12882" lon="2.22424">
        <ele>115</ele>
        <time>2018-04-17T15:10:07Z</time>
      </trkpt>
      <trkpt lat="47.12907" lon="2.2237">
        <ele>114</ele>
        <time>2018-04-17T15:10:16Z</time>
      </trkpt>
      <trkpt lat="47.1292" lon="2.2234">
        <ele>113</ele>
        <time>2018-04-17T15:10:21Z</time>
      </trkpt>
      <trkpt lat="47.12928" lon="2.22322">
        <ele>113</ele>
        <time>2018-04-17T15:10:24Z</time>
      </trkpt>
      <trkpt lat="47.12939" lon="2.22298">
        <ele>113</ele>
        <time>2018-04-17T15:10:28Z</time>
      </trkpt>
      <trkpt lat="47.12946" lon="2.22279">
        <ele>113</ele>
        <time>2018-04-17T15:10:31Z</time>
      </trkpt>
      <trkpt lat="47.1296" lon="2.22248">
        <ele>113</ele>
        <time>2018-04-17T15:10:36Z</time>
      </trkpt>
      <trkpt lat="47.12968" lon="2.2223">
        <ele>113</ele>
        <time>2018-04-17T15:10:39Z</time>
      </trkpt>
      <trkpt lat="47.12999" lon="2.22162">
        <ele>112</ele>
        <time>2018-04-17T15:10:50Z</time>
      </trkpt>
      <trkpt lat="47.1301" lon="2.22136">
        <ele>113</ele>
        <time>2018-04-17T15:10:54Z</time>
      </trkpt>
      <trkpt lat="47.13015" lon="2.22124">
        <ele>113</ele>
        <time>2018-04-17T15:10:56Z</time>
      </trkpt>
      <trkpt lat="47.1303" lon="2.22091">
        <ele>113</ele>
        <time>2018-04-17T15:11:02Z</time>
      </trkpt>
      <trkpt lat="47.13032" lon="2.22086">
        <ele>113</ele>
        <time>2018-04-17T15:11:03Z</time>
      </trkpt>
      <trkpt lat="47.13045" lon="2.22061">
        <ele>114</ele>
        <time>2018-04-17T15:11:09Z</time>
      </trkpt>
      <trkpt lat="47.13052" lon="2.22044">
        <ele>114</ele>
        <time>2018-04-17T15:11:12Z</time>
      </trkpt>
      <trkpt lat="47.13057" lon="2.22032">
        <ele>114</ele>
        <time>2018-04-17T15:11:14Z</time>
      </trkpt>
      <trkpt lat="47.13066" lon="2.22017">
        <ele>114</ele>
        <time>2018-04-17T15:11:18Z</time>
      </trkpt>
      <trkpt lat="47.13073" lon="2.21998">
        <ele>115</ele>
        <time>2018-04-17T15:11:22Z</time>
      </trkpt>
      <trkpt lat="47.13078" lon="2.21986">
        <ele>115</ele>
        <time>2018-04-17T15:11:24Z</time>
      </trkpt>
      <trkpt lat="47.13095" lon="2.21949">
        <ele>116</ele>
        <time>2018-04-17T15:11:30Z</time>
      </trkpt>
      <trkpt lat="47.13115" lon="2.21902">
        <ele>115</ele>
        <time>2018-04-17T15:11:38Z</time>
      </trkpt>
      <trkpt lat="47.13126" lon="2.21878">
        <ele>115</ele>
        <time>2018-04-17T15:11:42Z</time>
      </trkpt>
      <trkpt lat="47.13134" lon="2.21859">
        <ele>115</ele>
        <time>2018-04-17T15:11:45Z</time>
      </trkpt>
      <trkpt lat="47.13139" lon="2.21848">
        <ele>115</ele>
        <time>2018-04-17T15:11:47Z</time>
      </trkpt>
      <trkpt lat="47.13146" lon="2.21831">
        <ele>115</ele>
        <time>2018-04-17T15:11:50Z</time>
      </trkpt>
      <trkpt lat="47.1315" lon="2.21825">
        <ele>115</ele>
        <time>2018-04-17T15:11:51Z</time>
      </trkpt>
      <trkpt lat="47.13167" lon="2.2179">
        <ele>116</ele>
        <time>2018-04-17T15:11:57Z</time>
      </trkpt>
      <trkpt lat="47.1317" lon="2.21785">
        <ele>116</ele>
        <time>2018-04-17T15:11:58Z</time>
      </trkpt>
      <trkpt lat="47.13177" lon="2.21773">
        <ele>116</ele>
        <time>2018-04-17T15:12:00Z</time>
      </trkpt>
      <trkpt lat="47.13184" lon="2.21763">
        <ele>116</ele>
        <time>2018-04-17T15:12:02Z</time>
      </trkpt>
      <trkpt lat="47.13191" lon="2.21752">
        <ele>116</ele>
        <time>2018-04-17T15:12:04Z</time>
      </trkpt>
      <trkpt lat="47.13199" lon="2.21742">
        <ele>116</ele>
        <time>2018-04-17T15:12:06Z</time>
      </trkpt>
      <trkpt lat="47.13208" lon="2.21728">
        <ele>116</ele>
        <time>2018-04-17T15:12:09Z</time>
      </trkpt>
      <trkpt lat="47.13231" lon="2.21704">
        <ele>116</ele>
        <time>2018-04-17T15:12:15Z</time>
      </trkpt>
      <trkpt lat="47.13254" lon="2.21682">
        <ele>117</ele>
        <time>2018-04-17T15:12:22Z</time>
      </trkpt>
      <trkpt lat="47.13263" lon="2.21677">
        <ele>117</ele>
        <time>2018-04-17T15:12:26Z</time>
      </trkpt>
      <trkpt lat="47.13283" lon="2.21666">
        <ele>116</ele>
        <time>2018-04-17T15:12:31Z</time>
      </trkpt>
      <trkpt lat="47.13305" lon="2.21657">
        <ele>117</ele>
        <time>2018-04-17T15:12:36Z</time>
      </trkpt>
      <trkpt lat="47.13315" lon="2.21654">
        <ele>117</ele>
        <time>2018-04-17T15:12:38Z</time>
      </trkpt>
      <trkpt lat="47.1335" lon="2.21641">
        <ele>119</ele>
        <time>2018-04-17T15:12:46Z</time>
      </trkpt>
      <trkpt lat="47.13389" lon="2.21629">
        <ele>119</ele>
        <time>2018-04-17T15:12:54Z</time>
      </trkpt>
      <trkpt lat="47.13421" lon="2.21615">
        <ele>120</ele>
        <time>2018-04-17T15:13:01Z</time>
      </trkpt>
      <trkpt lat="47.13458" lon="2.21603">
        <ele>120</ele>
        <time>2018-04-17T15:13:09Z</time>
      </trkpt>
      <trkpt lat="47.13506" lon="2.21587">
        <ele>120</ele>
        <time>2018-04-17T15:13:19Z</time>
      </trkpt>
      <trkpt lat="47.13542" lon="2.21574">
        <ele>120</ele>
        <time>2018-04-17T15:13:27Z</time>
      </trkpt>
      <trkpt lat="47.13569" lon="2.21564">
        <ele>120</ele>
        <time>2018-04-17T15:13:33Z</time>
      </trkpt>
      <trkpt lat="47.13591" lon="2.21559">
        <ele>120</ele>
        <time>2018-04-17T15:13:39Z</time>
      </trkpt>
      <trkpt lat="47.13616" lon="2.21549">
        <ele>120</ele>
        <time>2018-04-17T15:13:45Z</time>
      </trkpt>
      <trkpt lat="47.1365" lon="2.21544">
        <ele>119</ele>
        <time>2018-04-17T15:13:52Z</time>
      </trkpt>
      <trkpt lat="47.13686" lon="2.21544">
        <ele>118</ele>
        <time>2018-04-17T15:13:59Z</time>
      </trkpt>
      <trkpt lat="47.13717" lon="2.21549">
        <ele>117</ele>
        <time>2018-04-17T15:14:06Z</time>
      </trkpt>
      <trkpt lat="47.13748" lon="2.2156">
        <ele>117</ele>
        <time>2018-04-17T15:14:13Z</time>
      </trkpt>
    </trkseg>
  </trk>
</gpx>